<?xml version="1.0" encoding="UTF-8" standalone="no" ?>
<gpx xmlns="http://www.topografix.com/GPX/1/1" xmlns:xsi="http://www.w3.org/2001/XMLSchema-instance" xsi:schemaLocation="http://www.topografix.com/GPX/1/1 http://www.topografix.com/GPX/1/1/gpx.xsd" version="1.1" creator="VisuGPX - https://www.visugpx.com">
  <metadata>
    <name>J7 Monthermé- Givet</name>
    <desc><![CDATA[La traversée des Ardennes Belge
J7 Monthermé- Givet 55km 1000m]]></desc>
  </metadata>
  <trk>
    <name><![CDATA[J7 Monthermé- Givet]]></name>
    <trkseg>
      <trkpt lat="49.88523" lon="4.73875">
        <ele>150.58</ele>
        <time>2013-05-01T07:22:00Z</time>
      </trkpt>
      <trkpt lat="49.88579" lon="4.73821">
        <ele>146.74</ele>
        <time>2013-05-01T07:22:09Z</time>
      </trkpt>
      <trkpt lat="49.8864" lon="4.73771">
        <ele>148.66</ele>
        <time>2013-05-01T07:22:22Z</time>
      </trkpt>
      <trkpt lat="49.88703" lon="4.73715">
        <ele>150.1</ele>
        <time>2013-05-01T07:22:35Z</time>
      </trkpt>
      <trkpt lat="49.88768" lon="4.73608">
        <ele>149.62</ele>
        <time>2013-05-01T07:22:50Z</time>
      </trkpt>
      <trkpt lat="49.88809" lon="4.73475">
        <ele>147.22</ele>
        <time>2013-05-01T07:23:03Z</time>
      </trkpt>
      <trkpt lat="49.88831" lon="4.73344">
        <ele>146.26</ele>
        <time>2013-05-01T07:23:15Z</time>
      </trkpt>
      <trkpt lat="49.88822" lon="4.73307">
        <ele>144.82</ele>
        <time>2013-05-01T07:23:18Z</time>
      </trkpt>
      <trkpt lat="49.88799" lon="4.73142">
        <ele>143.85</ele>
        <time>2013-05-01T07:23:32Z</time>
      </trkpt>
      <trkpt lat="49.88779" lon="4.73004">
        <ele>156.35</ele>
        <time>2013-05-01T07:24:43Z</time>
      </trkpt>
      <trkpt lat="49.88762" lon="4.72969">
        <ele>160.68</ele>
        <time>2013-05-01T07:25:06Z</time>
      </trkpt>
      <trkpt lat="49.88737" lon="4.72859">
        <ele>173.17</ele>
        <time>2013-05-01T07:26:02Z</time>
      </trkpt>
      <trkpt lat="49.88712" lon="4.72812">
        <ele>179.9</ele>
        <time>2013-05-01T07:26:33Z</time>
      </trkpt>
      <trkpt lat="49.88698" lon="4.72762">
        <ele>185.19</ele>
        <time>2013-05-01T07:26:59Z</time>
      </trkpt>
      <trkpt lat="49.88684" lon="4.72733">
        <ele>188.56</ele>
        <time>2013-05-01T07:27:15Z</time>
      </trkpt>
      <trkpt lat="49.88652" lon="4.72656">
        <ele>198.65</ele>
        <time>2013-05-01T07:27:59Z</time>
      </trkpt>
      <trkpt lat="49.88635" lon="4.72633">
        <ele>202.49</ele>
        <time>2013-05-01T07:28:15Z</time>
      </trkpt>
      <trkpt lat="49.88604" lon="4.72593">
        <ele>209.22</ele>
        <time>2013-05-01T07:28:45Z</time>
      </trkpt>
      <trkpt lat="49.88602" lon="4.7259">
        <ele>209.7</ele>
        <time>2013-05-01T07:28:47Z</time>
      </trkpt>
      <trkpt lat="49.88583" lon="4.72554">
        <ele>214.03</ele>
        <time>2013-05-01T07:29:08Z</time>
      </trkpt>
      <trkpt lat="49.88578" lon="4.72504">
        <ele>219.8</ele>
        <time>2013-05-01T07:29:31Z</time>
      </trkpt>
      <trkpt lat="49.8857" lon="4.7249">
        <ele>221.24</ele>
        <time>2013-05-01T07:29:40Z</time>
      </trkpt>
      <trkpt lat="49.88554" lon="4.72482">
        <ele>223.64</ele>
        <time>2013-05-01T07:29:53Z</time>
      </trkpt>
      <trkpt lat="49.88508" lon="4.72447">
        <ele>231.33</ele>
        <time>2013-05-01T07:30:30Z</time>
      </trkpt>
      <trkpt lat="49.88491" lon="4.72412">
        <ele>235.66</ele>
        <time>2013-05-01T07:30:49Z</time>
      </trkpt>
      <trkpt lat="49.88477" lon="4.7236">
        <ele>242.39</ele>
        <time>2013-05-01T07:31:17Z</time>
      </trkpt>
      <trkpt lat="49.88442" lon="4.72259">
        <ele>254.89</ele>
        <time>2013-05-01T07:32:12Z</time>
      </trkpt>
      <trkpt lat="49.88413" lon="4.72191">
        <ele>264.98</ele>
        <time>2013-05-01T07:32:53Z</time>
      </trkpt>
      <trkpt lat="49.88348" lon="4.72127">
        <ele>275.56</ele>
        <time>2013-05-01T07:33:38Z</time>
      </trkpt>
      <trkpt lat="49.88347" lon="4.72126">
        <ele>275.56</ele>
        <time>2013-05-01T07:33:39Z</time>
      </trkpt>
      <trkpt lat="49.8833" lon="4.72123">
        <ele>278.92</ele>
        <time>2013-05-01T07:33:52Z</time>
      </trkpt>
      <trkpt lat="49.88322" lon="4.72128">
        <ele>280.36</ele>
        <time>2013-05-01T07:34:00Z</time>
      </trkpt>
      <trkpt lat="49.88319" lon="4.72131">
        <ele>281.8</ele>
        <time>2013-05-01T07:34:03Z</time>
      </trkpt>
      <trkpt lat="49.88277" lon="4.7218">
        <ele>288.53</ele>
        <time>2013-05-01T07:34:34Z</time>
      </trkpt>
      <trkpt lat="49.88259" lon="4.72165">
        <ele>289.97</ele>
        <time>2013-05-01T07:40:39Z</time>
      </trkpt>
      <trkpt lat="49.88253" lon="4.72146">
        <ele>290.94</ele>
        <time>2013-05-01T07:40:49Z</time>
      </trkpt>
      <trkpt lat="49.88237" lon="4.71998">
        <ele>299.11</ele>
        <time>2013-05-01T07:41:32Z</time>
      </trkpt>
      <trkpt lat="49.88241" lon="4.71901">
        <ele>300.07</ele>
        <time>2013-05-01T07:41:53Z</time>
      </trkpt>
      <trkpt lat="49.88257" lon="4.71859">
        <ele>300.07</ele>
        <time>2013-05-01T07:42:01Z</time>
      </trkpt>
      <trkpt lat="49.88288" lon="4.71824">
        <ele>301.51</ele>
        <time>2013-05-01T07:42:13Z</time>
      </trkpt>
      <trkpt lat="49.88351" lon="4.71775">
        <ele>306.8</ele>
        <time>2013-05-01T07:42:39Z</time>
      </trkpt>
      <trkpt lat="49.88433" lon="4.71711">
        <ele>315.93</ele>
        <time>2013-05-01T07:43:17Z</time>
      </trkpt>
      <trkpt lat="49.88467" lon="4.71662">
        <ele>320.74</ele>
        <time>2013-05-01T07:43:38Z</time>
      </trkpt>
      <trkpt lat="49.88534" lon="4.71549">
        <ele>331.31</ele>
        <time>2013-05-01T07:44:21Z</time>
      </trkpt>
      <trkpt lat="49.88588" lon="4.71509">
        <ele>337.56</ele>
        <time>2013-05-01T07:44:46Z</time>
      </trkpt>
      <trkpt lat="49.88668" lon="4.7145">
        <ele>345.73</ele>
        <time>2013-05-01T07:45:23Z</time>
      </trkpt>
      <trkpt lat="49.88717" lon="4.71427">
        <ele>346.21</ele>
        <time>2013-05-01T07:45:44Z</time>
      </trkpt>
      <trkpt lat="49.8878" lon="4.71399">
        <ele>346.21</ele>
        <time>2013-05-01T07:46:39Z</time>
      </trkpt>
      <trkpt lat="49.88815" lon="4.71408">
        <ele>346.21</ele>
        <time>2013-05-01T07:46:55Z</time>
      </trkpt>
      <trkpt lat="49.88852" lon="4.71433">
        <ele>346.21</ele>
        <time>2013-05-01T07:47:09Z</time>
      </trkpt>
      <trkpt lat="49.88929" lon="4.71471">
        <ele>347.17</ele>
        <time>2013-05-01T07:47:34Z</time>
      </trkpt>
      <trkpt lat="49.8903" lon="4.71551">
        <ele>347.17</ele>
        <time>2013-05-01T07:48:04Z</time>
      </trkpt>
      <trkpt lat="49.89107" lon="4.71629">
        <ele>347.17</ele>
        <time>2013-05-01T07:48:28Z</time>
      </trkpt>
      <trkpt lat="49.89127" lon="4.71689">
        <ele>347.17</ele>
        <time>2013-05-01T07:48:40Z</time>
      </trkpt>
      <trkpt lat="49.89122" lon="4.71774">
        <ele>347.65</ele>
        <time>2013-05-01T07:48:55Z</time>
      </trkpt>
      <trkpt lat="49.89128" lon="4.72066">
        <ele>346.69</ele>
        <time>2013-05-01T07:49:43Z</time>
      </trkpt>
      <trkpt lat="49.89121" lon="4.72187">
        <ele>344.77</ele>
        <time>2013-05-01T07:50:02Z</time>
      </trkpt>
      <trkpt lat="49.89143" lon="4.72276">
        <ele>343.81</ele>
        <time>2013-05-01T07:50:15Z</time>
      </trkpt>
      <trkpt lat="49.89218" lon="4.72455">
        <ele>339.96</ele>
        <time>2013-05-01T07:50:45Z</time>
      </trkpt>
      <trkpt lat="49.89252" lon="4.72507">
        <ele>339</ele>
        <time>2013-05-01T07:50:56Z</time>
      </trkpt>
      <trkpt lat="49.89299" lon="4.72583">
        <ele>337.08</ele>
        <time>2013-05-01T07:51:10Z</time>
      </trkpt>
      <trkpt lat="49.89321" lon="4.72671">
        <ele>335.64</ele>
        <time>2013-05-01T07:51:23Z</time>
      </trkpt>
      <trkpt lat="49.89319" lon="4.72734">
        <ele>334.2</ele>
        <time>2013-05-01T07:51:32Z</time>
      </trkpt>
      <trkpt lat="49.89294" lon="4.72836">
        <ele>332.27</ele>
        <time>2013-05-01T07:51:47Z</time>
      </trkpt>
      <trkpt lat="49.89254" lon="4.72983">
        <ele>329.39</ele>
        <time>2013-05-01T07:52:07Z</time>
      </trkpt>
      <trkpt lat="49.89241" lon="4.73061">
        <ele>328.43</ele>
        <time>2013-05-01T07:52:17Z</time>
      </trkpt>
      <trkpt lat="49.89246" lon="4.73185">
        <ele>326.99</ele>
        <time>2013-05-01T07:52:30Z</time>
      </trkpt>
      <trkpt lat="49.89268" lon="4.73304">
        <ele>324.58</ele>
        <time>2013-05-01T07:52:43Z</time>
      </trkpt>
      <trkpt lat="49.89282" lon="4.73377">
        <ele>323.14</ele>
        <time>2013-05-01T08:07:06Z</time>
      </trkpt>
      <trkpt lat="49.89328" lon="4.7349">
        <ele>319.3</ele>
        <time>2013-05-01T08:07:24Z</time>
      </trkpt>
      <trkpt lat="49.89352" lon="4.73556">
        <ele>317.85</ele>
        <time>2013-05-01T08:07:36Z</time>
      </trkpt>
      <trkpt lat="49.89412" lon="4.73643">
        <ele>315.45</ele>
        <time>2013-05-01T08:07:51Z</time>
      </trkpt>
      <trkpt lat="49.89448" lon="4.737">
        <ele>313.53</ele>
        <time>2013-05-01T08:08:02Z</time>
      </trkpt>
      <trkpt lat="49.8948" lon="4.73713">
        <ele>312.09</ele>
        <time>2013-05-01T08:08:10Z</time>
      </trkpt>
      <trkpt lat="49.89568" lon="4.73697">
        <ele>306.8</ele>
        <time>2013-05-01T08:08:25Z</time>
      </trkpt>
      <trkpt lat="49.89609" lon="4.73681">
        <ele>304.39</ele>
        <time>2013-05-01T08:08:31Z</time>
      </trkpt>
      <trkpt lat="49.89649" lon="4.73692">
        <ele>302.47</ele>
        <time>2013-05-01T08:08:37Z</time>
      </trkpt>
      <trkpt lat="49.8969" lon="4.73735">
        <ele>302.95</ele>
        <time>2013-05-01T08:08:47Z</time>
      </trkpt>
      <trkpt lat="49.8971" lon="4.7378">
        <ele>302.47</ele>
        <time>2013-05-01T08:08:54Z</time>
      </trkpt>
      <trkpt lat="49.8973" lon="4.73935">
        <ele>290.94</ele>
        <time>2013-05-01T08:09:11Z</time>
      </trkpt>
      <trkpt lat="49.89764" lon="4.73928">
        <ele>289.49</ele>
        <time>2013-05-01T08:09:19Z</time>
      </trkpt>
      <trkpt lat="49.89803" lon="4.73902">
        <ele>288.05</ele>
        <time>2013-05-01T08:09:30Z</time>
      </trkpt>
      <trkpt lat="49.89832" lon="4.73931">
        <ele>285.65</ele>
        <time>2013-05-01T08:09:37Z</time>
      </trkpt>
      <trkpt lat="49.89863" lon="4.73936">
        <ele>281.32</ele>
        <time>2013-05-01T08:09:41Z</time>
      </trkpt>
      <trkpt lat="49.89907" lon="4.73912">
        <ele>275.56</ele>
        <time>2013-05-01T08:09:46Z</time>
      </trkpt>
      <trkpt lat="49.89945" lon="4.73884">
        <ele>272.19</ele>
        <time>2013-05-01T08:09:50Z</time>
      </trkpt>
      <trkpt lat="49.89997" lon="4.73839">
        <ele>263.54</ele>
        <time>2013-05-01T08:09:56Z</time>
      </trkpt>
      <trkpt lat="49.90024" lon="4.73804">
        <ele>258.73</ele>
        <time>2013-05-01T08:10:00Z</time>
      </trkpt>
      <trkpt lat="49.9007" lon="4.73666">
        <ele>245.27</ele>
        <time>2013-05-01T08:10:10Z</time>
      </trkpt>
      <trkpt lat="49.90083" lon="4.73576">
        <ele>239.99</ele>
        <time>2013-05-01T08:10:16Z</time>
      </trkpt>
      <trkpt lat="49.90117" lon="4.73464">
        <ele>222.68</ele>
        <time>2013-05-01T08:10:26Z</time>
      </trkpt>
      <trkpt lat="49.90128" lon="4.73338">
        <ele>208.74</ele>
        <time>2013-05-01T08:10:35Z</time>
      </trkpt>
      <trkpt lat="49.90105" lon="4.73123">
        <ele>198.17</ele>
        <time>2013-05-01T08:11:30Z</time>
      </trkpt>
      <trkpt lat="49.90095" lon="4.73061">
        <ele>194.8</ele>
        <time>2013-05-01T08:11:37Z</time>
      </trkpt>
      <trkpt lat="49.90084" lon="4.73005">
        <ele>189.52</ele>
        <time>2013-05-01T08:11:42Z</time>
      </trkpt>
      <trkpt lat="49.90091" lon="4.73003">
        <ele>186.63</ele>
        <time>2013-05-01T08:11:46Z</time>
      </trkpt>
      <trkpt lat="49.90146" lon="4.73154">
        <ele>190.96</ele>
        <time>2013-05-01T08:12:35Z</time>
      </trkpt>
      <trkpt lat="49.90182" lon="4.73268">
        <ele>193.36</ele>
        <time>2013-05-01T08:13:00Z</time>
      </trkpt>
      <trkpt lat="49.90195" lon="4.73343">
        <ele>194.32</ele>
        <time>2013-05-01T08:13:15Z</time>
      </trkpt>
      <trkpt lat="49.90208" lon="4.73422">
        <ele>195.28</ele>
        <time>2013-05-01T08:13:31Z</time>
      </trkpt>
      <trkpt lat="49.90224" lon="4.73503">
        <ele>198.17</ele>
        <time>2013-05-01T08:13:48Z</time>
      </trkpt>
      <trkpt lat="49.90245" lon="4.73567">
        <ele>199.13</ele>
        <time>2013-05-01T08:14:03Z</time>
      </trkpt>
      <trkpt lat="49.90276" lon="4.73678">
        <ele>202.98</ele>
        <time>2013-05-01T08:14:32Z</time>
      </trkpt>
      <trkpt lat="49.90301" lon="4.73732">
        <ele>205.86</ele>
        <time>2013-05-01T08:14:50Z</time>
      </trkpt>
      <trkpt lat="49.90358" lon="4.73817">
        <ele>211.15</ele>
        <time>2013-05-01T08:15:23Z</time>
      </trkpt>
      <trkpt lat="49.90419" lon="4.73882">
        <ele>216.91</ele>
        <time>2013-05-01T08:15:53Z</time>
      </trkpt>
      <trkpt lat="49.90472" lon="4.73905">
        <ele>220.28</ele>
        <time>2013-05-01T08:16:17Z</time>
      </trkpt>
      <trkpt lat="49.90503" lon="4.73926">
        <ele>222.68</ele>
        <time>2013-05-01T08:16:31Z</time>
      </trkpt>
      <trkpt lat="49.90531" lon="4.73954">
        <ele>225.57</ele>
        <time>2013-05-01T08:16:45Z</time>
      </trkpt>
      <trkpt lat="49.90561" lon="4.73974">
        <ele>227.49</ele>
        <time>2013-05-01T08:16:59Z</time>
      </trkpt>
      <trkpt lat="49.90669" lon="4.74001">
        <ele>225.09</ele>
        <time>2013-05-01T08:17:53Z</time>
      </trkpt>
      <trkpt lat="49.90747" lon="4.74005">
        <ele>220.28</ele>
        <time>2013-05-01T08:18:05Z</time>
      </trkpt>
      <trkpt lat="49.90774" lon="4.73989">
        <ele>218.84</ele>
        <time>2013-05-01T08:18:10Z</time>
      </trkpt>
      <trkpt lat="49.90795" lon="4.73942">
        <ele>217.88</ele>
        <time>2013-05-01T08:18:17Z</time>
      </trkpt>
      <trkpt lat="49.90832" lon="4.73894">
        <ele>219.32</ele>
        <time>2013-05-01T08:18:32Z</time>
      </trkpt>
      <trkpt lat="49.90854" lon="4.73863">
        <ele>220.76</ele>
        <time>2013-05-01T08:18:44Z</time>
      </trkpt>
      <trkpt lat="49.90877" lon="4.7382">
        <ele>221.72</ele>
        <time>2013-05-01T08:18:57Z</time>
      </trkpt>
      <trkpt lat="49.90897" lon="4.73753">
        <ele>224.12</ele>
        <time>2013-05-01T08:19:13Z</time>
      </trkpt>
      <trkpt lat="49.90923" lon="4.73713">
        <ele>225.57</ele>
        <time>2013-05-01T08:19:26Z</time>
      </trkpt>
      <trkpt lat="49.91046" lon="4.73575">
        <ele>231.81</ele>
        <time>2013-05-01T08:20:20Z</time>
      </trkpt>
      <trkpt lat="49.91104" lon="4.73541">
        <ele>235.66</ele>
        <time>2013-05-01T08:20:44Z</time>
      </trkpt>
      <trkpt lat="49.91143" lon="4.73527">
        <ele>237.58</ele>
        <time>2013-05-01T08:20:58Z</time>
      </trkpt>
      <trkpt lat="49.91208" lon="4.73545">
        <ele>240.95</ele>
        <time>2013-05-01T08:21:22Z</time>
      </trkpt>
      <trkpt lat="49.9124" lon="4.73567">
        <ele>242.87</ele>
        <time>2013-05-01T08:21:34Z</time>
      </trkpt>
      <trkpt lat="49.91299" lon="4.73613">
        <ele>246.72</ele>
        <time>2013-05-01T08:21:58Z</time>
      </trkpt>
      <trkpt lat="49.9143" lon="4.73681">
        <ele>252</ele>
        <time>2013-05-01T08:22:46Z</time>
      </trkpt>
      <trkpt lat="49.91461" lon="4.73695">
        <ele>252.96</ele>
        <time>2013-05-01T08:22:57Z</time>
      </trkpt>
      <trkpt lat="49.91637" lon="4.73751">
        <ele>261.14</ele>
        <time>2013-05-01T08:23:59Z</time>
      </trkpt>
      <trkpt lat="49.91694" lon="4.73736">
        <ele>264.98</ele>
        <time>2013-05-01T08:24:21Z</time>
      </trkpt>
      <trkpt lat="49.91909" lon="4.73668">
        <ele>274.59</ele>
        <time>2013-05-01T08:25:38Z</time>
      </trkpt>
      <trkpt lat="49.91933" lon="4.7365">
        <ele>276.04</ele>
        <time>2013-05-01T08:25:48Z</time>
      </trkpt>
      <trkpt lat="49.91996" lon="4.73546">
        <ele>279.4</ele>
        <time>2013-05-01T08:26:15Z</time>
      </trkpt>
      <trkpt lat="49.92017" lon="4.73519">
        <ele>281.32</ele>
        <time>2013-05-01T08:26:26Z</time>
      </trkpt>
      <trkpt lat="49.92043" lon="4.7349">
        <ele>282.77</ele>
        <time>2013-05-01T08:26:38Z</time>
      </trkpt>
      <trkpt lat="49.92071" lon="4.73468">
        <ele>284.21</ele>
        <time>2013-05-01T08:26:51Z</time>
      </trkpt>
      <trkpt lat="49.92107" lon="4.73446">
        <ele>286.61</ele>
        <time>2013-05-01T08:27:06Z</time>
      </trkpt>
      <trkpt lat="49.92161" lon="4.73442">
        <ele>289.49</ele>
        <time>2013-05-01T08:27:27Z</time>
      </trkpt>
      <trkpt lat="49.92236" lon="4.73446">
        <ele>292.86</ele>
        <time>2013-05-01T08:27:53Z</time>
      </trkpt>
      <trkpt lat="49.92267" lon="4.73439">
        <ele>294.3</ele>
        <time>2013-05-01T08:28:04Z</time>
      </trkpt>
      <trkpt lat="49.92297" lon="4.73415">
        <ele>295.26</ele>
        <time>2013-05-01T08:28:17Z</time>
      </trkpt>
      <trkpt lat="49.92325" lon="4.73384">
        <ele>296.7</ele>
        <time>2013-05-01T08:28:29Z</time>
      </trkpt>
      <trkpt lat="49.92361" lon="4.73291">
        <ele>299.11</ele>
        <time>2013-05-01T08:28:56Z</time>
      </trkpt>
      <trkpt lat="49.92403" lon="4.73217">
        <ele>301.99</ele>
        <time>2013-05-01T08:29:22Z</time>
      </trkpt>
      <trkpt lat="49.92557" lon="4.731">
        <ele>311.12</ele>
        <time>2013-05-01T08:30:32Z</time>
      </trkpt>
      <trkpt lat="49.926" lon="4.73049">
        <ele>314.01</ele>
        <time>2013-05-01T08:39:40Z</time>
      </trkpt>
      <trkpt lat="49.92796" lon="4.73075">
        <ele>326.5</ele>
        <time>2013-05-01T08:41:15Z</time>
      </trkpt>
      <trkpt lat="49.92815" lon="4.73097">
        <ele>330.35</ele>
        <time>2013-05-01T08:41:30Z</time>
      </trkpt>
      <trkpt lat="49.92836" lon="4.73142">
        <ele>335.64</ele>
        <time>2013-05-01T08:41:45Z</time>
      </trkpt>
      <trkpt lat="49.92901" lon="4.73346">
        <ele>345.25</ele>
        <time>2013-05-01T08:42:54Z</time>
      </trkpt>
      <trkpt lat="49.9295" lon="4.73473">
        <ele>344.29</ele>
        <time>2013-05-01T08:43:44Z</time>
      </trkpt>
      <trkpt lat="49.92999" lon="4.73568">
        <ele>343.33</ele>
        <time>2013-05-01T08:44:03Z</time>
      </trkpt>
      <trkpt lat="49.93019" lon="4.73672">
        <ele>348.13</ele>
        <time>2013-05-01T08:44:36Z</time>
      </trkpt>
      <trkpt lat="49.93035" lon="4.73774">
        <ele>354.86</ele>
        <time>2013-05-01T08:45:13Z</time>
      </trkpt>
      <trkpt lat="49.93068" lon="4.74016">
        <ele>372.17</ele>
        <time>2013-05-01T08:46:35Z</time>
      </trkpt>
      <trkpt lat="49.93078" lon="4.74098">
        <ele>376.01</ele>
        <time>2013-05-01T08:46:59Z</time>
      </trkpt>
      <trkpt lat="49.93095" lon="4.74271">
        <ele>384.18</ele>
        <time>2013-05-01T08:47:55Z</time>
      </trkpt>
      <trkpt lat="49.93107" lon="4.74327">
        <ele>387.55</ele>
        <time>2013-05-01T08:48:14Z</time>
      </trkpt>
      <trkpt lat="49.9324" lon="4.74706">
        <ele>414.47</ele>
        <time>2013-05-01T08:50:32Z</time>
      </trkpt>
      <trkpt lat="49.93307" lon="4.74876">
        <ele>426</ele>
        <time>2013-05-01T08:51:34Z</time>
      </trkpt>
      <trkpt lat="49.93352" lon="4.74999">
        <ele>435.13</ele>
        <time>2013-05-01T08:52:19Z</time>
      </trkpt>
      <trkpt lat="49.93427" lon="4.75193">
        <ele>447.15</ele>
        <time>2013-05-01T08:53:19Z</time>
      </trkpt>
      <trkpt lat="49.93445" lon="4.7524">
        <ele>449.55</ele>
        <time>2013-05-01T08:53:32Z</time>
      </trkpt>
      <trkpt lat="49.93494" lon="4.75374">
        <ele>455.32</ele>
        <time>2013-05-01T08:54:11Z</time>
      </trkpt>
      <trkpt lat="49.93551" lon="4.75526">
        <ele>463.97</ele>
        <time>2013-05-01T08:54:55Z</time>
      </trkpt>
      <trkpt lat="49.93599" lon="4.75645">
        <ele>469.26</ele>
        <time>2013-05-01T09:01:31Z</time>
      </trkpt>
      <trkpt lat="49.93629" lon="4.75724">
        <ele>472.63</ele>
        <time>2013-05-01T09:02:00Z</time>
      </trkpt>
      <trkpt lat="49.93592" lon="4.7584">
        <ele>469.74</ele>
        <time>2013-05-01T09:02:22Z</time>
      </trkpt>
      <trkpt lat="49.93549" lon="4.75913">
        <ele>465.42</ele>
        <time>2013-05-01T09:02:32Z</time>
      </trkpt>
      <trkpt lat="49.93515" lon="4.7599">
        <ele>462.53</ele>
        <time>2013-05-01T09:02:40Z</time>
      </trkpt>
      <trkpt lat="49.93485" lon="4.7605">
        <ele>460.13</ele>
        <time>2013-05-01T09:02:46Z</time>
      </trkpt>
      <trkpt lat="49.93445" lon="4.76137">
        <ele>458.21</ele>
        <time>2013-05-01T09:02:55Z</time>
      </trkpt>
      <trkpt lat="49.93399" lon="4.76246">
        <ele>460.13</ele>
        <time>2013-05-01T09:03:11Z</time>
      </trkpt>
      <trkpt lat="49.9336" lon="4.76405">
        <ele>461.57</ele>
        <time>2013-05-01T09:03:32Z</time>
      </trkpt>
      <trkpt lat="49.93328" lon="4.76531">
        <ele>463.01</ele>
        <time>2013-05-01T09:03:49Z</time>
      </trkpt>
      <trkpt lat="49.93292" lon="4.76698">
        <ele>463.97</ele>
        <time>2013-05-01T09:04:12Z</time>
      </trkpt>
      <trkpt lat="49.93293" lon="4.76745">
        <ele>463.97</ele>
        <time>2013-05-01T09:04:18Z</time>
      </trkpt>
      <trkpt lat="49.93306" lon="4.76804">
        <ele>465.42</ele>
        <time>2013-05-01T09:04:27Z</time>
      </trkpt>
      <trkpt lat="49.93319" lon="4.76889">
        <ele>465.9</ele>
        <time>2013-05-01T09:04:59Z</time>
      </trkpt>
      <trkpt lat="49.93345" lon="4.77084">
        <ele>468.3</ele>
        <time>2013-05-01T09:06:01Z</time>
      </trkpt>
      <trkpt lat="49.93371" lon="4.77149">
        <ele>470.22</ele>
        <time>2013-05-01T09:06:16Z</time>
      </trkpt>
      <trkpt lat="49.93406" lon="4.77192">
        <ele>474.55</ele>
        <time>2013-05-01T09:06:31Z</time>
      </trkpt>
      <trkpt lat="49.93429" lon="4.77265">
        <ele>474.55</ele>
        <time>2013-05-01T09:06:48Z</time>
      </trkpt>
      <trkpt lat="49.93436" lon="4.77355">
        <ele>475.51</ele>
        <time>2013-05-01T09:07:06Z</time>
      </trkpt>
      <trkpt lat="49.93436" lon="4.77452">
        <ele>477.43</ele>
        <time>2013-05-01T09:07:26Z</time>
      </trkpt>
      <trkpt lat="49.93419" lon="4.77612">
        <ele>482.24</ele>
        <time>2013-05-01T09:08:01Z</time>
      </trkpt>
      <trkpt lat="49.93402" lon="4.77691">
        <ele>485.12</ele>
        <time>2013-05-01T09:08:20Z</time>
      </trkpt>
      <trkpt lat="49.9334" lon="4.77775">
        <ele>488.49</ele>
        <time>2013-05-01T09:08:49Z</time>
      </trkpt>
      <trkpt lat="49.93333" lon="4.77794">
        <ele>489.45</ele>
        <time>2013-05-01T09:08:58Z</time>
      </trkpt>
      <trkpt lat="49.93416" lon="4.77814">
        <ele>491.37</ele>
        <time>2013-05-01T09:09:27Z</time>
      </trkpt>
      <trkpt lat="49.93469" lon="4.77821">
        <ele>492.33</ele>
        <time>2013-05-01T09:09:42Z</time>
      </trkpt>
      <trkpt lat="49.93516" lon="4.77842">
        <ele>494.26</ele>
        <time>2013-05-01T09:09:56Z</time>
      </trkpt>
      <trkpt lat="49.93624" lon="4.77905">
        <ele>498.58</ele>
        <time>2013-05-01T09:10:28Z</time>
      </trkpt>
      <trkpt lat="49.93756" lon="4.77983">
        <ele>503.39</ele>
        <time>2013-05-01T09:11:08Z</time>
      </trkpt>
      <trkpt lat="49.93841" lon="4.78013">
        <ele>502.43</ele>
        <time>2013-05-01T09:11:36Z</time>
      </trkpt>
      <trkpt lat="49.94013" lon="4.78029">
        <ele>501.46</ele>
        <time>2013-05-01T09:12:20Z</time>
      </trkpt>
      <trkpt lat="49.9416" lon="4.78044">
        <ele>501.95</ele>
        <time>2013-05-01T09:12:47Z</time>
      </trkpt>
      <trkpt lat="49.94289" lon="4.78056">
        <ele>503.39</ele>
        <time>2013-05-01T09:13:00Z</time>
      </trkpt>
      <trkpt lat="49.94421" lon="4.78071">
        <ele>501.95</ele>
        <time>2013-05-01T09:13:19Z</time>
      </trkpt>
      <trkpt lat="49.94579" lon="4.78092">
        <ele>502.43</ele>
        <time>2013-05-01T09:13:53Z</time>
      </trkpt>
      <trkpt lat="49.94663" lon="4.78046">
        <ele>503.39</ele>
        <time>2013-05-01T09:14:24Z</time>
      </trkpt>
      <trkpt lat="49.94714" lon="4.78013">
        <ele>502.43</ele>
        <time>2013-05-01T09:14:41Z</time>
      </trkpt>
      <trkpt lat="49.94774" lon="4.77975">
        <ele>502.43</ele>
        <time>2013-05-01T09:14:59Z</time>
      </trkpt>
      <trkpt lat="49.94871" lon="4.77915">
        <ele>501.46</ele>
        <time>2013-05-01T09:15:23Z</time>
      </trkpt>
      <trkpt lat="49.9494" lon="4.7787">
        <ele>500.98</ele>
        <time>2013-05-01T09:15:38Z</time>
      </trkpt>
      <trkpt lat="49.95008" lon="4.77826">
        <ele>500.5</ele>
        <time>2013-05-01T09:15:52Z</time>
      </trkpt>
      <trkpt lat="49.95191" lon="4.77709">
        <ele>500.5</ele>
        <time>2013-05-01T09:16:46Z</time>
      </trkpt>
      <trkpt lat="49.95356" lon="4.77602">
        <ele>500.5</ele>
        <time>2013-05-01T09:17:22Z</time>
      </trkpt>
      <trkpt lat="49.9549" lon="4.77515">
        <ele>500.98</ele>
        <time>2013-05-01T09:17:50Z</time>
      </trkpt>
      <trkpt lat="49.95498" lon="4.77469">
        <ele>500.02</ele>
        <time>2013-05-01T09:17:58Z</time>
      </trkpt>
      <trkpt lat="49.95456" lon="4.77184">
        <ele>493.77</ele>
        <time>2013-05-01T09:19:50Z</time>
      </trkpt>
      <trkpt lat="49.9542" lon="4.76893">
        <ele>487.05</ele>
        <time>2013-05-01T09:20:12Z</time>
      </trkpt>
      <trkpt lat="49.95384" lon="4.76629">
        <ele>480.8</ele>
        <time>2013-05-01T09:20:32Z</time>
      </trkpt>
      <trkpt lat="49.9533" lon="4.76221">
        <ele>470.7</ele>
        <time>2013-05-01T09:21:02Z</time>
      </trkpt>
      <trkpt lat="49.95312" lon="4.76091">
        <ele>467.82</ele>
        <time>2013-05-01T09:21:11Z</time>
      </trkpt>
      <trkpt lat="49.95292" lon="4.75942">
        <ele>463.01</ele>
        <time>2013-05-01T09:21:21Z</time>
      </trkpt>
      <trkpt lat="49.95247" lon="4.75612">
        <ele>456.28</ele>
        <time>2013-05-01T09:21:45Z</time>
      </trkpt>
      <trkpt lat="49.95249" lon="4.75539">
        <ele>453.4</ele>
        <time>2013-05-01T09:21:50Z</time>
      </trkpt>
      <trkpt lat="49.95289" lon="4.754">
        <ele>453.4</ele>
        <time>2013-05-01T09:22:03Z</time>
      </trkpt>
      <trkpt lat="49.95333" lon="4.75241">
        <ele>452.92</ele>
        <time>2013-05-01T09:22:21Z</time>
      </trkpt>
      <trkpt lat="49.95373" lon="4.75092">
        <ele>452.44</ele>
        <time>2013-05-01T09:22:39Z</time>
      </trkpt>
      <trkpt lat="49.95414" lon="4.74946">
        <ele>451.96</ele>
        <time>2013-05-01T09:22:56Z</time>
      </trkpt>
      <trkpt lat="49.95463" lon="4.74773">
        <ele>451.96</ele>
        <time>2013-05-01T09:23:16Z</time>
      </trkpt>
      <trkpt lat="49.95512" lon="4.74588">
        <ele>451.48</ele>
        <time>2013-05-01T09:23:36Z</time>
      </trkpt>
      <trkpt lat="49.95547" lon="4.74461">
        <ele>452.92</ele>
        <time>2013-05-01T09:23:52Z</time>
      </trkpt>
      <trkpt lat="49.95614" lon="4.74226">
        <ele>455.32</ele>
        <time>2013-05-01T09:24:25Z</time>
      </trkpt>
      <trkpt lat="49.95674" lon="4.74004">
        <ele>455.8</ele>
        <time>2013-05-01T09:24:55Z</time>
      </trkpt>
      <trkpt lat="49.95683" lon="4.73971">
        <ele>455.32</ele>
        <time>2013-05-01T09:24:59Z</time>
      </trkpt>
      <trkpt lat="49.95749" lon="4.73918">
        <ele>459.17</ele>
        <time>2013-05-01T09:25:29Z</time>
      </trkpt>
      <trkpt lat="49.95776" lon="4.73881">
        <ele>460.13</ele>
        <time>2013-05-01T09:25:39Z</time>
      </trkpt>
      <trkpt lat="49.95841" lon="4.73794">
        <ele>463.01</ele>
        <time>2013-05-01T09:29:44Z</time>
      </trkpt>
      <trkpt lat="49.95893" lon="4.73708">
        <ele>464.93</ele>
        <time>2013-05-01T09:29:59Z</time>
      </trkpt>
      <trkpt lat="49.95934" lon="4.73635">
        <ele>466.86</ele>
        <time>2013-05-01T09:30:13Z</time>
      </trkpt>
      <trkpt lat="49.95934" lon="4.73418">
        <ele>466.38</ele>
        <time>2013-05-01T09:30:55Z</time>
      </trkpt>
      <trkpt lat="49.95935" lon="4.7334">
        <ele>467.34</ele>
        <time>2013-05-01T09:31:08Z</time>
      </trkpt>
      <trkpt lat="49.95963" lon="4.73307">
        <ele>469.26</ele>
        <time>2013-05-01T09:31:18Z</time>
      </trkpt>
      <trkpt lat="49.95994" lon="4.7328">
        <ele>471.18</ele>
        <time>2013-05-01T09:31:28Z</time>
      </trkpt>
      <trkpt lat="49.96039" lon="4.73262">
        <ele>473.11</ele>
        <time>2013-05-01T09:31:41Z</time>
      </trkpt>
      <trkpt lat="49.96075" lon="4.73247">
        <ele>474.07</ele>
        <time>2013-05-01T09:31:52Z</time>
      </trkpt>
      <trkpt lat="49.96149" lon="4.73207">
        <ele>475.99</ele>
        <time>2013-05-01T09:32:13Z</time>
      </trkpt>
      <trkpt lat="49.96213" lon="4.73179">
        <ele>477.43</ele>
        <time>2013-05-01T09:32:36Z</time>
      </trkpt>
      <trkpt lat="49.96272" lon="4.73162">
        <ele>476.47</ele>
        <time>2013-05-01T09:32:57Z</time>
      </trkpt>
      <trkpt lat="49.96331" lon="4.73139">
        <ele>475.99</ele>
        <time>2013-05-01T09:33:14Z</time>
      </trkpt>
      <trkpt lat="49.96365" lon="4.7312">
        <ele>473.11</ele>
        <time>2013-05-01T09:33:20Z</time>
      </trkpt>
      <trkpt lat="49.96394" lon="4.73076">
        <ele>469.74</ele>
        <time>2013-05-01T09:33:26Z</time>
      </trkpt>
      <trkpt lat="49.96489" lon="4.72971">
        <ele>461.57</ele>
        <time>2013-05-01T09:33:44Z</time>
      </trkpt>
      <trkpt lat="49.96546" lon="4.72909">
        <ele>454.84</ele>
        <time>2013-05-01T09:33:53Z</time>
      </trkpt>
      <trkpt lat="49.96578" lon="4.72872">
        <ele>449.07</ele>
        <time>2013-05-01T09:34:11Z</time>
      </trkpt>
      <trkpt lat="49.96625" lon="4.72862">
        <ele>446.67</ele>
        <time>2013-05-01T09:34:30Z</time>
      </trkpt>
      <trkpt lat="49.96705" lon="4.72831">
        <ele>439.94</ele>
        <time>2013-05-01T09:34:58Z</time>
      </trkpt>
      <trkpt lat="49.96774" lon="4.72804">
        <ele>435.13</ele>
        <time>2013-05-01T09:35:09Z</time>
      </trkpt>
      <trkpt lat="49.96825" lon="4.72795">
        <ele>431.77</ele>
        <time>2013-05-01T09:35:16Z</time>
      </trkpt>
      <trkpt lat="49.96899" lon="4.72783">
        <ele>428.4</ele>
        <time>2013-05-01T09:35:27Z</time>
      </trkpt>
      <trkpt lat="49.9699" lon="4.7273">
        <ele>423.12</ele>
        <time>2013-05-01T09:35:43Z</time>
      </trkpt>
      <trkpt lat="49.97044" lon="4.7268">
        <ele>420.23</ele>
        <time>2013-05-01T09:35:53Z</time>
      </trkpt>
      <trkpt lat="49.97104" lon="4.7261">
        <ele>418.79</ele>
        <time>2013-05-01T09:36:06Z</time>
      </trkpt>
      <trkpt lat="49.97179" lon="4.72557">
        <ele>417.35</ele>
        <time>2013-05-01T09:36:24Z</time>
      </trkpt>
      <trkpt lat="49.97228" lon="4.72528">
        <ele>416.87</ele>
        <time>2013-05-01T09:36:37Z</time>
      </trkpt>
      <trkpt lat="49.97256" lon="4.72495">
        <ele>414.95</ele>
        <time>2013-05-01T09:37:27Z</time>
      </trkpt>
      <trkpt lat="49.97351" lon="4.72456">
        <ele>412.54</ele>
        <time>2013-05-01T09:37:48Z</time>
      </trkpt>
      <trkpt lat="49.97393" lon="4.72439">
        <ele>410.62</ele>
        <time>2013-05-01T09:37:56Z</time>
      </trkpt>
      <trkpt lat="49.97488" lon="4.72404">
        <ele>407.26</ele>
        <time>2013-05-01T09:38:12Z</time>
      </trkpt>
      <trkpt lat="49.97559" lon="4.7236">
        <ele>405.33</ele>
        <time>2013-05-01T09:38:28Z</time>
      </trkpt>
      <trkpt lat="49.97601" lon="4.72323">
        <ele>403.89</ele>
        <time>2013-05-01T09:38:38Z</time>
      </trkpt>
      <trkpt lat="49.9768" lon="4.72254">
        <ele>400.53</ele>
        <time>2013-05-01T09:38:55Z</time>
      </trkpt>
      <trkpt lat="49.97733" lon="4.7219">
        <ele>397.16</ele>
        <time>2013-05-01T09:39:06Z</time>
      </trkpt>
      <trkpt lat="49.97803" lon="4.72129">
        <ele>395.24</ele>
        <time>2013-05-01T09:39:21Z</time>
      </trkpt>
      <trkpt lat="49.97888" lon="4.72059">
        <ele>395.24</ele>
        <time>2013-05-01T09:39:42Z</time>
      </trkpt>
      <trkpt lat="49.97929" lon="4.72038">
        <ele>396.2</ele>
        <time>2013-05-01T09:39:53Z</time>
      </trkpt>
      <trkpt lat="49.97984" lon="4.72017">
        <ele>394.76</ele>
        <time>2013-05-01T09:40:06Z</time>
      </trkpt>
      <trkpt lat="49.98063" lon="4.71997">
        <ele>392.84</ele>
        <time>2013-05-01T09:40:23Z</time>
      </trkpt>
      <trkpt lat="49.98135" lon="4.71973">
        <ele>389.47</ele>
        <time>2013-05-01T09:40:39Z</time>
      </trkpt>
      <trkpt lat="49.98175" lon="4.71942">
        <ele>386.11</ele>
        <time>2013-05-01T09:40:48Z</time>
      </trkpt>
      <trkpt lat="49.98225" lon="4.7194">
        <ele>382.74</ele>
        <time>2013-05-01T09:40:58Z</time>
      </trkpt>
      <trkpt lat="49.98274" lon="4.71938">
        <ele>381.78</ele>
        <time>2013-05-01T09:41:08Z</time>
      </trkpt>
      <trkpt lat="49.98307" lon="4.71937">
        <ele>382.26</ele>
        <time>2013-05-01T09:41:16Z</time>
      </trkpt>
      <trkpt lat="49.98367" lon="4.7194">
        <ele>386.11</ele>
        <time>2013-05-01T09:54:05Z</time>
      </trkpt>
      <trkpt lat="49.98416" lon="4.71963">
        <ele>384.18</ele>
        <time>2013-05-01T09:54:13Z</time>
      </trkpt>
      <trkpt lat="49.98485" lon="4.72018">
        <ele>380.34</ele>
        <time>2013-05-01T09:54:23Z</time>
      </trkpt>
      <trkpt lat="49.98528" lon="4.72048">
        <ele>381.78</ele>
        <time>2013-05-01T09:54:33Z</time>
      </trkpt>
      <trkpt lat="49.98588" lon="4.72095">
        <ele>385.15</ele>
        <time>2013-05-01T09:54:57Z</time>
      </trkpt>
      <trkpt lat="49.98629" lon="4.72172">
        <ele>388.03</ele>
        <time>2013-05-01T09:55:22Z</time>
      </trkpt>
      <trkpt lat="49.9867" lon="4.72198">
        <ele>389.95</ele>
        <time>2013-05-01T09:55:36Z</time>
      </trkpt>
      <trkpt lat="49.98764" lon="4.72233">
        <ele>390.43</ele>
        <time>2013-05-01T09:56:08Z</time>
      </trkpt>
      <trkpt lat="49.98832" lon="4.72259">
        <ele>389.47</ele>
        <time>2013-05-01T09:56:25Z</time>
      </trkpt>
      <trkpt lat="49.98909" lon="4.7226">
        <ele>373.61</ele>
        <time>2013-05-01T09:56:40Z</time>
      </trkpt>
      <trkpt lat="49.98951" lon="4.72266">
        <ele>366.4</ele>
        <time>2013-05-01T09:56:48Z</time>
      </trkpt>
      <trkpt lat="49.99004" lon="4.72306">
        <ele>357.75</ele>
        <time>2013-05-01T09:56:58Z</time>
      </trkpt>
      <trkpt lat="49.99044" lon="4.72352">
        <ele>350.06</ele>
        <time>2013-05-01T09:57:07Z</time>
      </trkpt>
      <trkpt lat="49.99119" lon="4.72398">
        <ele>343.81</ele>
        <time>2013-05-01T09:57:20Z</time>
      </trkpt>
      <trkpt lat="49.99156" lon="4.72411">
        <ele>341.41</ele>
        <time>2013-05-01T09:57:25Z</time>
      </trkpt>
      <trkpt lat="49.99241" lon="4.72437">
        <ele>330.35</ele>
        <time>2013-05-01T09:57:41Z</time>
      </trkpt>
      <trkpt lat="49.99298" lon="4.72444">
        <ele>318.33</ele>
        <time>2013-05-01T09:57:58Z</time>
      </trkpt>
      <trkpt lat="49.99366" lon="4.72454">
        <ele>303.91</ele>
        <time>2013-05-01T09:58:14Z</time>
      </trkpt>
      <trkpt lat="49.99389" lon="4.72435">
        <ele>295.26</ele>
        <time>2013-05-01T09:58:22Z</time>
      </trkpt>
      <trkpt lat="49.99408" lon="4.72397">
        <ele>286.61</ele>
        <time>2013-05-01T09:58:36Z</time>
      </trkpt>
      <trkpt lat="49.99409" lon="4.72352">
        <ele>278.44</ele>
        <time>2013-05-01T09:58:46Z</time>
      </trkpt>
      <trkpt lat="49.99415" lon="4.72304">
        <ele>270.75</ele>
        <time>2013-05-01T09:58:56Z</time>
      </trkpt>
      <trkpt lat="49.99432" lon="4.72253">
        <ele>264.98</ele>
        <time>2013-05-01T10:02:30Z</time>
      </trkpt>
      <trkpt lat="49.99449" lon="4.7224">
        <ele>263.06</ele>
        <time>2013-05-01T10:02:34Z</time>
      </trkpt>
      <trkpt lat="49.99527" lon="4.72158">
        <ele>254.89</ele>
        <time>2013-05-01T10:02:45Z</time>
      </trkpt>
      <trkpt lat="49.99556" lon="4.72101">
        <ele>251.52</ele>
        <time>2013-05-01T10:02:50Z</time>
      </trkpt>
      <trkpt lat="49.99601" lon="4.71998">
        <ele>248.16</ele>
        <time>2013-05-01T10:02:59Z</time>
      </trkpt>
      <trkpt lat="49.99608" lon="4.7193">
        <ele>244.79</ele>
        <time>2013-05-01T10:03:06Z</time>
      </trkpt>
      <trkpt lat="49.99633" lon="4.71782">
        <ele>237.58</ele>
        <time>2013-05-01T10:03:19Z</time>
      </trkpt>
      <trkpt lat="49.99649" lon="4.71748">
        <ele>234.7</ele>
        <time>2013-05-01T10:03:23Z</time>
      </trkpt>
      <trkpt lat="49.99695" lon="4.7171">
        <ele>230.85</ele>
        <time>2013-05-01T10:03:32Z</time>
      </trkpt>
      <trkpt lat="49.99737" lon="4.71667">
        <ele>231.81</ele>
        <time>2013-05-01T10:03:41Z</time>
      </trkpt>
      <trkpt lat="49.99804" lon="4.71593">
        <ele>227.97</ele>
        <time>2013-05-01T10:03:56Z</time>
      </trkpt>
      <trkpt lat="49.99822" lon="4.71574">
        <ele>228.93</ele>
        <time>2013-05-01T10:04:00Z</time>
      </trkpt>
      <trkpt lat="49.99846" lon="4.71559">
        <ele>228.45</ele>
        <time>2013-05-01T10:04:06Z</time>
      </trkpt>
      <trkpt lat="49.99872" lon="4.71573">
        <ele>227.97</ele>
        <time>2013-05-01T10:04:15Z</time>
      </trkpt>
      <trkpt lat="49.99888" lon="4.71629">
        <ele>229.41</ele>
        <time>2013-05-01T10:04:25Z</time>
      </trkpt>
      <trkpt lat="49.99916" lon="4.7175">
        <ele>227.97</ele>
        <time>2013-05-01T10:04:44Z</time>
      </trkpt>
      <trkpt lat="49.99939" lon="4.71732">
        <ele>227.49</ele>
        <time>2013-05-01T10:04:55Z</time>
      </trkpt>
      <trkpt lat="49.99989" lon="4.71599">
        <ele>224.12</ele>
        <time>2013-05-01T10:05:26Z</time>
      </trkpt>
      <trkpt lat="50.00037" lon="4.71481">
        <ele>222.2</ele>
        <time>2013-05-01T10:05:46Z</time>
      </trkpt>
      <trkpt lat="50.00089" lon="4.71399">
        <ele>218.36</ele>
        <time>2013-05-01T10:06:04Z</time>
      </trkpt>
      <trkpt lat="50.00132" lon="4.71362">
        <ele>216.91</ele>
        <time>2013-05-01T10:06:14Z</time>
      </trkpt>
      <trkpt lat="50.00172" lon="4.71309">
        <ele>213.55</ele>
        <time>2013-05-01T10:06:21Z</time>
      </trkpt>
      <trkpt lat="50.00191" lon="4.71325">
        <ele>212.11</ele>
        <time>2013-05-01T10:06:28Z</time>
      </trkpt>
      <trkpt lat="50.00212" lon="4.71451">
        <ele>209.22</ele>
        <time>2013-05-01T10:06:44Z</time>
      </trkpt>
      <trkpt lat="50.00223" lon="4.71541">
        <ele>210.67</ele>
        <time>2013-05-01T10:09:10Z</time>
      </trkpt>
      <trkpt lat="50.00238" lon="4.71632">
        <ele>211.15</ele>
        <time>2013-05-01T10:09:24Z</time>
      </trkpt>
      <trkpt lat="50.00248" lon="4.71698">
        <ele>210.19</ele>
        <time>2013-05-01T10:09:34Z</time>
      </trkpt>
      <trkpt lat="50.00264" lon="4.71814">
        <ele>208.26</ele>
        <time>2013-05-01T10:09:50Z</time>
      </trkpt>
      <trkpt lat="50.00276" lon="4.71865">
        <ele>205.38</ele>
        <time>2013-05-01T10:09:57Z</time>
      </trkpt>
      <trkpt lat="50.00308" lon="4.7185">
        <ele>203.94</ele>
        <time>2013-05-01T10:10:04Z</time>
      </trkpt>
      <trkpt lat="50.00357" lon="4.71829">
        <ele>202.98</ele>
        <time>2013-05-01T10:10:12Z</time>
      </trkpt>
      <trkpt lat="50.00385" lon="4.71828">
        <ele>202.01</ele>
        <time>2013-05-01T10:10:16Z</time>
      </trkpt>
      <trkpt lat="50.00412" lon="4.71821">
        <ele>200.09</ele>
        <time>2013-05-01T10:10:20Z</time>
      </trkpt>
      <trkpt lat="50.00428" lon="4.71844">
        <ele>197.69</ele>
        <time>2013-05-01T10:10:25Z</time>
      </trkpt>
      <trkpt lat="50.00422" lon="4.71883">
        <ele>196.73</ele>
        <time>2013-05-01T10:10:30Z</time>
      </trkpt>
      <trkpt lat="50.00436" lon="4.7197">
        <ele>189.52</ele>
        <time>2013-05-01T10:10:39Z</time>
      </trkpt>
      <trkpt lat="50.00467" lon="4.72059">
        <ele>170.77</ele>
        <time>2013-05-01T10:10:47Z</time>
      </trkpt>
      <trkpt lat="50.0048" lon="4.72079">
        <ele>164.04</ele>
        <time>2013-05-01T10:10:52Z</time>
      </trkpt>
      <trkpt lat="50.00535" lon="4.72046">
        <ele>163.08</ele>
        <time>2013-05-01T10:11:05Z</time>
      </trkpt>
      <trkpt lat="50.00585" lon="4.71976">
        <ele>161.64</ele>
        <time>2013-05-01T10:11:16Z</time>
      </trkpt>
      <trkpt lat="50.0066" lon="4.71887">
        <ele>159.72</ele>
        <time>2013-05-01T10:11:30Z</time>
      </trkpt>
      <trkpt lat="50.00708" lon="4.71852">
        <ele>159.24</ele>
        <time>2013-05-01T10:11:38Z</time>
      </trkpt>
      <trkpt lat="50.00792" lon="4.71787">
        <ele>156.83</ele>
        <time>2013-05-01T10:11:50Z</time>
      </trkpt>
      <trkpt lat="50.00838" lon="4.71735">
        <ele>155.39</ele>
        <time>2013-05-01T10:11:57Z</time>
      </trkpt>
      <trkpt lat="50.00874" lon="4.71706">
        <ele>152.51</ele>
        <time>2013-05-01T10:12:02Z</time>
      </trkpt>
      <trkpt lat="50.00923" lon="4.7168">
        <ele>146.26</ele>
        <time>2013-05-01T10:12:10Z</time>
      </trkpt>
      <trkpt lat="50.00927" lon="4.71661">
        <ele>143.85</ele>
        <time>2013-05-01T10:12:14Z</time>
      </trkpt>
      <trkpt lat="50.00916" lon="4.71619">
        <ele>141.45</ele>
        <time>2013-05-01T10:12:19Z</time>
      </trkpt>
      <trkpt lat="50.00914" lon="4.7155">
        <ele>138.57</ele>
        <time>2013-05-01T10:12:25Z</time>
      </trkpt>
      <trkpt lat="50.00917" lon="4.71545">
        <ele>136.64</ele>
        <time>2013-05-01T10:12:30Z</time>
      </trkpt>
      <trkpt lat="50.00927" lon="4.71594">
        <ele>135.68</ele>
        <time>2013-05-01T10:12:42Z</time>
      </trkpt>
      <trkpt lat="50.00949" lon="4.71646">
        <ele>133.76</ele>
        <time>2013-05-01T10:12:53Z</time>
      </trkpt>
      <trkpt lat="50.00975" lon="4.71668">
        <ele>131.36</ele>
        <time>2013-05-01T10:13:01Z</time>
      </trkpt>
      <trkpt lat="50.01" lon="4.71677">
        <ele>129.43</ele>
        <time>2013-05-01T10:13:09Z</time>
      </trkpt>
      <trkpt lat="50.00995" lon="4.71576">
        <ele>129.92</ele>
        <time>2013-05-01T10:13:25Z</time>
      </trkpt>
      <trkpt lat="50.00991" lon="4.71498">
        <ele>129.92</ele>
        <time>2013-05-01T10:13:38Z</time>
      </trkpt>
      <trkpt lat="50.00988" lon="4.71346">
        <ele>130.88</ele>
        <time>2013-05-01T10:14:02Z</time>
      </trkpt>
      <trkpt lat="50.01008" lon="4.7122">
        <ele>130.4</ele>
        <time>2013-05-01T10:14:20Z</time>
      </trkpt>
      <trkpt lat="50.01038" lon="4.71232">
        <ele>118.38</ele>
        <time>2013-05-01T11:40:27Z</time>
      </trkpt>
      <trkpt lat="50.01032" lon="4.71281">
        <ele>118.38</ele>
        <time>2013-05-01T11:40:35Z</time>
      </trkpt>
      <trkpt lat="50.01021" lon="4.71418">
        <ele>116.94</ele>
        <time>2013-05-01T11:40:57Z</time>
      </trkpt>
      <trkpt lat="50.01016" lon="4.71587">
        <ele>116.94</ele>
        <time>2013-05-01T11:41:24Z</time>
      </trkpt>
      <trkpt lat="50.01032" lon="4.71705">
        <ele>117.42</ele>
        <time>2013-05-01T11:41:43Z</time>
      </trkpt>
      <trkpt lat="50.01069" lon="4.71827">
        <ele>117.9</ele>
        <time>2013-05-01T11:42:04Z</time>
      </trkpt>
      <trkpt lat="50.01101" lon="4.71911">
        <ele>117.42</ele>
        <time>2013-05-01T11:42:20Z</time>
      </trkpt>
      <trkpt lat="50.01134" lon="4.72028">
        <ele>117.42</ele>
        <time>2013-05-01T11:42:41Z</time>
      </trkpt>
      <trkpt lat="50.01145" lon="4.72104">
        <ele>117.9</ele>
        <time>2013-05-01T11:42:53Z</time>
      </trkpt>
      <trkpt lat="50.01164" lon="4.72228">
        <ele>118.38</ele>
        <time>2013-05-01T11:43:12Z</time>
      </trkpt>
      <trkpt lat="50.01187" lon="4.72341">
        <ele>116.94</ele>
        <time>2013-05-01T11:43:29Z</time>
      </trkpt>
      <trkpt lat="50.01227" lon="4.72487">
        <ele>117.9</ele>
        <time>2013-05-01T11:43:53Z</time>
      </trkpt>
      <trkpt lat="50.01262" lon="4.726">
        <ele>118.38</ele>
        <time>2013-05-01T11:44:12Z</time>
      </trkpt>
      <trkpt lat="50.01292" lon="4.72665">
        <ele>118.86</ele>
        <time>2013-05-01T11:44:24Z</time>
      </trkpt>
      <trkpt lat="50.01363" lon="4.72791">
        <ele>118.86</ele>
        <time>2013-05-01T11:44:48Z</time>
      </trkpt>
      <trkpt lat="50.01429" lon="4.72884">
        <ele>118.86</ele>
        <time>2013-05-01T11:45:09Z</time>
      </trkpt>
      <trkpt lat="50.01494" lon="4.72961">
        <ele>118.86</ele>
        <time>2013-05-01T11:45:26Z</time>
      </trkpt>
      <trkpt lat="50.01573" lon="4.73044">
        <ele>119.34</ele>
        <time>2013-05-01T11:45:47Z</time>
      </trkpt>
      <trkpt lat="50.01632" lon="4.73111">
        <ele>120.78</ele>
        <time>2013-05-01T11:46:05Z</time>
      </trkpt>
      <trkpt lat="50.01679" lon="4.73167">
        <ele>122.22</ele>
        <time>2013-05-01T11:46:19Z</time>
      </trkpt>
      <trkpt lat="50.01741" lon="4.73236">
        <ele>123.19</ele>
        <time>2013-05-01T11:46:37Z</time>
      </trkpt>
      <trkpt lat="50.01794" lon="4.73295">
        <ele>123.67</ele>
        <time>2013-05-01T11:46:53Z</time>
      </trkpt>
      <trkpt lat="50.01856" lon="4.73344">
        <ele>123.19</ele>
        <time>2013-05-01T11:47:08Z</time>
      </trkpt>
      <trkpt lat="50.01932" lon="4.73339">
        <ele>120.78</ele>
        <time>2013-05-01T11:47:21Z</time>
      </trkpt>
      <trkpt lat="50.0199" lon="4.73341">
        <ele>118.86</ele>
        <time>2013-05-01T11:47:30Z</time>
      </trkpt>
      <trkpt lat="50.02036" lon="4.73342">
        <ele>118.38</ele>
        <time>2013-05-01T11:47:39Z</time>
      </trkpt>
      <trkpt lat="50.02104" lon="4.73339">
        <ele>118.86</ele>
        <time>2013-05-01T11:47:55Z</time>
      </trkpt>
      <trkpt lat="50.02179" lon="4.73321">
        <ele>118.86</ele>
        <time>2013-05-01T11:48:13Z</time>
      </trkpt>
      <trkpt lat="50.02239" lon="4.73286">
        <ele>119.34</ele>
        <time>2013-05-01T11:48:28Z</time>
      </trkpt>
      <trkpt lat="50.0227" lon="4.73249">
        <ele>119.34</ele>
        <time>2013-05-01T11:48:37Z</time>
      </trkpt>
      <trkpt lat="50.02311" lon="4.73185">
        <ele>118.38</ele>
        <time>2013-05-01T11:48:50Z</time>
      </trkpt>
      <trkpt lat="50.02357" lon="4.73102">
        <ele>118.86</ele>
        <time>2013-05-01T11:49:06Z</time>
      </trkpt>
      <trkpt lat="50.02418" lon="4.72963">
        <ele>118.38</ele>
        <time>2013-05-01T11:49:30Z</time>
      </trkpt>
      <trkpt lat="50.02479" lon="4.72799">
        <ele>118.86</ele>
        <time>2013-05-01T11:49:56Z</time>
      </trkpt>
      <trkpt lat="50.02526" lon="4.72707">
        <ele>117.9</ele>
        <time>2013-05-01T11:50:12Z</time>
      </trkpt>
      <trkpt lat="50.02589" lon="4.72599">
        <ele>117.42</ele>
        <time>2013-05-01T11:50:31Z</time>
      </trkpt>
      <trkpt lat="50.02642" lon="4.72516">
        <ele>117.9</ele>
        <time>2013-05-01T11:50:47Z</time>
      </trkpt>
      <trkpt lat="50.02675" lon="4.72472">
        <ele>118.38</ele>
        <time>2013-05-01T11:50:56Z</time>
      </trkpt>
      <trkpt lat="50.02746" lon="4.72403">
        <ele>117.42</ele>
        <time>2013-05-01T11:51:13Z</time>
      </trkpt>
      <trkpt lat="50.02778" lon="4.72386">
        <ele>117.9</ele>
        <time>2013-05-01T11:51:20Z</time>
      </trkpt>
      <trkpt lat="50.02808" lon="4.72384">
        <ele>118.38</ele>
        <time>2013-05-01T11:51:26Z</time>
      </trkpt>
      <trkpt lat="50.029" lon="4.7241">
        <ele>118.38</ele>
        <time>2013-05-01T11:51:45Z</time>
      </trkpt>
      <trkpt lat="50.02956" lon="4.72442">
        <ele>117.42</ele>
        <time>2013-05-01T11:51:57Z</time>
      </trkpt>
      <trkpt lat="50.03024" lon="4.72517">
        <ele>118.38</ele>
        <time>2013-05-01T11:52:14Z</time>
      </trkpt>
      <trkpt lat="50.03099" lon="4.7261">
        <ele>118.38</ele>
        <time>2013-05-01T11:52:33Z</time>
      </trkpt>
      <trkpt lat="50.03168" lon="4.72691">
        <ele>118.38</ele>
        <time>2013-05-01T11:52:51Z</time>
      </trkpt>
      <trkpt lat="50.03243" lon="4.72773">
        <ele>117.9</ele>
        <time>2013-05-01T11:53:10Z</time>
      </trkpt>
      <trkpt lat="50.03317" lon="4.72846">
        <ele>117.42</ele>
        <time>2013-05-01T11:53:28Z</time>
      </trkpt>
      <trkpt lat="50.0341" lon="4.72894">
        <ele>117.42</ele>
        <time>2013-05-01T11:53:48Z</time>
      </trkpt>
      <trkpt lat="50.03445" lon="4.72905">
        <ele>116.94</ele>
        <time>2013-05-01T11:53:56Z</time>
      </trkpt>
      <trkpt lat="50.03516" lon="4.72907">
        <ele>118.38</ele>
        <time>2013-05-01T11:54:11Z</time>
      </trkpt>
      <trkpt lat="50.0356" lon="4.72907">
        <ele>117.42</ele>
        <time>2013-05-01T11:54:21Z</time>
      </trkpt>
      <trkpt lat="50.03684" lon="4.72899">
        <ele>117.42</ele>
        <time>2013-05-01T12:04:37Z</time>
      </trkpt>
      <trkpt lat="50.03702" lon="4.72899">
        <ele>116.94</ele>
        <time>2013-05-01T12:04:42Z</time>
      </trkpt>
      <trkpt lat="50.03699" lon="4.73008">
        <ele>120.3</ele>
        <time>2013-05-01T12:05:05Z</time>
      </trkpt>
      <trkpt lat="50.03673" lon="4.73089">
        <ele>121.26</ele>
        <time>2013-05-01T12:05:24Z</time>
      </trkpt>
      <trkpt lat="50.03659" lon="4.73134">
        <ele>121.74</ele>
        <time>2013-05-01T12:05:33Z</time>
      </trkpt>
      <trkpt lat="50.03637" lon="4.73184">
        <ele>124.15</ele>
        <time>2013-05-01T12:05:46Z</time>
      </trkpt>
      <trkpt lat="50.03593" lon="4.73253">
        <ele>118.86</ele>
        <time>2013-05-01T12:06:07Z</time>
      </trkpt>
      <trkpt lat="50.03592" lon="4.73255">
        <ele>132.32</ele>
        <time>2013-05-01T12:06:08Z</time>
      </trkpt>
      <trkpt lat="50.03555" lon="4.73312">
        <ele>130.4</ele>
        <time>2013-05-01T12:06:36Z</time>
      </trkpt>
      <trkpt lat="50.03522" lon="4.73362">
        <ele>131.84</ele>
        <time>2013-05-01T12:07:16Z</time>
      </trkpt>
      <trkpt lat="50.03492" lon="4.73403">
        <ele>133.76</ele>
        <time>2013-05-01T12:07:29Z</time>
      </trkpt>
      <trkpt lat="50.03461" lon="4.73429">
        <ele>135.68</ele>
        <time>2013-05-01T12:07:41Z</time>
      </trkpt>
      <trkpt lat="50.03415" lon="4.73458">
        <ele>132.8</ele>
        <time>2013-05-01T12:07:53Z</time>
      </trkpt>
      <trkpt lat="50.0336" lon="4.73499">
        <ele>136.16</ele>
        <time>2013-05-01T12:08:06Z</time>
      </trkpt>
      <trkpt lat="50.03295" lon="4.73556">
        <ele>137.61</ele>
        <time>2013-05-01T12:08:28Z</time>
      </trkpt>
      <trkpt lat="50.03246" lon="4.73611">
        <ele>140.01</ele>
        <time>2013-05-01T12:08:48Z</time>
      </trkpt>
      <trkpt lat="50.03216" lon="4.73696">
        <ele>141.45</ele>
        <time>2013-05-01T12:09:10Z</time>
      </trkpt>
      <trkpt lat="50.03191" lon="4.73807">
        <ele>144.82</ele>
        <time>2013-05-01T12:09:31Z</time>
      </trkpt>
      <trkpt lat="50.03196" lon="4.73861">
        <ele>144.82</ele>
        <time>2013-05-01T12:09:44Z</time>
      </trkpt>
      <trkpt lat="50.03223" lon="4.73917">
        <ele>144.34</ele>
        <time>2013-05-01T12:09:56Z</time>
      </trkpt>
      <trkpt lat="50.03296" lon="4.74067">
        <ele>149.14</ele>
        <time>2013-05-01T12:10:33Z</time>
      </trkpt>
      <trkpt lat="50.03358" lon="4.74181">
        <ele>153.47</ele>
        <time>2013-05-01T12:11:07Z</time>
      </trkpt>
      <trkpt lat="50.03418" lon="4.7431">
        <ele>157.31</ele>
        <time>2013-05-01T12:11:42Z</time>
      </trkpt>
      <trkpt lat="50.03435" lon="4.74373">
        <ele>160.2</ele>
        <time>2013-05-01T12:11:56Z</time>
      </trkpt>
      <trkpt lat="50.03466" lon="4.74515">
        <ele>160.2</ele>
        <time>2013-05-01T12:12:26Z</time>
      </trkpt>
      <trkpt lat="50.03486" lon="4.74565">
        <ele>160.2</ele>
        <time>2013-05-01T12:12:37Z</time>
      </trkpt>
      <trkpt lat="50.03515" lon="4.74631">
        <ele>161.16</ele>
        <time>2013-05-01T12:12:51Z</time>
      </trkpt>
      <trkpt lat="50.03537" lon="4.74668">
        <ele>162.6</ele>
        <time>2013-05-01T12:13:01Z</time>
      </trkpt>
      <trkpt lat="50.03552" lon="4.74717">
        <ele>165</ele>
        <time>2013-05-01T12:13:12Z</time>
      </trkpt>
      <trkpt lat="50.03572" lon="4.74843">
        <ele>167.89</ele>
        <time>2013-05-01T12:13:41Z</time>
      </trkpt>
      <trkpt lat="50.03577" lon="4.74905">
        <ele>167.89</ele>
        <time>2013-05-01T12:13:53Z</time>
      </trkpt>
      <trkpt lat="50.03567" lon="4.74961">
        <ele>167.89</ele>
        <time>2013-05-01T12:14:03Z</time>
      </trkpt>
      <trkpt lat="50.03576" lon="4.75095">
        <ele>169.33</ele>
        <time>2013-05-01T12:14:27Z</time>
      </trkpt>
      <trkpt lat="50.03554" lon="4.75263">
        <ele>171.25</ele>
        <time>2013-05-01T12:14:58Z</time>
      </trkpt>
      <trkpt lat="50.03545" lon="4.75313">
        <ele>172.69</ele>
        <time>2013-05-01T12:15:07Z</time>
      </trkpt>
      <trkpt lat="50.03543" lon="4.75382">
        <ele>173.66</ele>
        <time>2013-05-01T12:15:20Z</time>
      </trkpt>
      <trkpt lat="50.03543" lon="4.7549">
        <ele>176.06</ele>
        <time>2013-05-01T12:15:41Z</time>
      </trkpt>
      <trkpt lat="50.03538" lon="4.75595">
        <ele>178.94</ele>
        <time>2013-05-01T12:16:02Z</time>
      </trkpt>
      <trkpt lat="50.03576" lon="4.75739">
        <ele>180.87</ele>
        <time>2013-05-01T12:16:33Z</time>
      </trkpt>
      <trkpt lat="50.03592" lon="4.75796">
        <ele>183.27</ele>
        <time>2013-05-01T12:16:49Z</time>
      </trkpt>
      <trkpt lat="50.03591" lon="4.75883">
        <ele>185.19</ele>
        <time>2013-05-01T12:17:11Z</time>
      </trkpt>
      <trkpt lat="50.0358" lon="4.75928">
        <ele>186.15</ele>
        <time>2013-05-01T12:17:20Z</time>
      </trkpt>
      <trkpt lat="50.03559" lon="4.75967">
        <ele>187.11</ele>
        <time>2013-05-01T12:17:31Z</time>
      </trkpt>
      <trkpt lat="50.03534" lon="4.75998">
        <ele>189.04</ele>
        <time>2013-05-01T12:17:43Z</time>
      </trkpt>
      <trkpt lat="50.03495" lon="4.76036">
        <ele>190.96</ele>
        <time>2013-05-01T12:17:53Z</time>
      </trkpt>
      <trkpt lat="50.03465" lon="4.76084">
        <ele>191.44</ele>
        <time>2013-05-01T12:18:04Z</time>
      </trkpt>
      <trkpt lat="50.03412" lon="4.76188">
        <ele>192.4</ele>
        <time>2013-05-01T12:18:28Z</time>
      </trkpt>
      <trkpt lat="50.03377" lon="4.76271">
        <ele>194.8</ele>
        <time>2013-05-01T12:18:46Z</time>
      </trkpt>
      <trkpt lat="50.03366" lon="4.76368">
        <ele>197.21</ele>
        <time>2013-05-01T12:19:07Z</time>
      </trkpt>
      <trkpt lat="50.0337" lon="4.76435">
        <ele>198.65</ele>
        <time>2013-05-01T12:19:18Z</time>
      </trkpt>
      <trkpt lat="50.03393" lon="4.76547">
        <ele>200.57</ele>
        <time>2013-05-01T12:19:41Z</time>
      </trkpt>
      <trkpt lat="50.03379" lon="4.76655">
        <ele>204.42</ele>
        <time>2013-05-01T12:20:03Z</time>
      </trkpt>
      <trkpt lat="50.03359" lon="4.76716">
        <ele>206.82</ele>
        <time>2013-05-01T12:20:16Z</time>
      </trkpt>
      <trkpt lat="50.03306" lon="4.76801">
        <ele>210.19</ele>
        <time>2013-05-01T12:20:37Z</time>
      </trkpt>
      <trkpt lat="50.03239" lon="4.76929">
        <ele>214.03</ele>
        <time>2013-05-01T12:21:08Z</time>
      </trkpt>
      <trkpt lat="50.03255" lon="4.76967">
        <ele>215.47</ele>
        <time>2013-05-01T12:21:18Z</time>
      </trkpt>
      <trkpt lat="50.03354" lon="4.77056">
        <ele>219.32</ele>
        <time>2013-05-01T12:21:51Z</time>
      </trkpt>
      <trkpt lat="50.0337" lon="4.77079">
        <ele>220.28</ele>
        <time>2013-05-01T12:21:59Z</time>
      </trkpt>
      <trkpt lat="50.03374" lon="4.771">
        <ele>220.28</ele>
        <time>2013-05-01T12:22:20Z</time>
      </trkpt>
      <trkpt lat="50.0335" lon="4.77089">
        <ele>220.76</ele>
        <time>2013-05-01T12:24:20Z</time>
      </trkpt>
      <trkpt lat="50.03318" lon="4.7709">
        <ele>220.76</ele>
        <time>2013-05-01T12:24:32Z</time>
      </trkpt>
      <trkpt lat="50.03277" lon="4.77094">
        <ele>222.68</ele>
        <time>2013-05-01T12:24:48Z</time>
      </trkpt>
      <trkpt lat="50.03269" lon="4.77116">
        <ele>222.68</ele>
        <time>2013-05-01T12:24:54Z</time>
      </trkpt>
      <trkpt lat="50.03258" lon="4.77174">
        <ele>225.09</ele>
        <time>2013-05-01T12:25:10Z</time>
      </trkpt>
      <trkpt lat="50.03235" lon="4.77285">
        <ele>223.64</ele>
        <time>2013-05-01T12:25:26Z</time>
      </trkpt>
      <trkpt lat="50.03197" lon="4.77407">
        <ele>225.09</ele>
        <time>2013-05-01T12:25:46Z</time>
      </trkpt>
      <trkpt lat="50.03171" lon="4.77456">
        <ele>226.53</ele>
        <time>2013-05-01T12:26:04Z</time>
      </trkpt>
      <trkpt lat="50.03136" lon="4.77502">
        <ele>232.78</ele>
        <time>2013-05-01T12:26:26Z</time>
      </trkpt>
      <trkpt lat="50.0309" lon="4.77527">
        <ele>239.99</ele>
        <time>2013-05-01T12:26:49Z</time>
      </trkpt>
      <trkpt lat="50.03041" lon="4.77532">
        <ele>243.35</ele>
        <time>2013-05-01T12:27:13Z</time>
      </trkpt>
      <trkpt lat="50.03007" lon="4.77526">
        <ele>242.87</ele>
        <time>2013-05-01T12:27:23Z</time>
      </trkpt>
      <trkpt lat="50.02943" lon="4.77507">
        <ele>242.39</ele>
        <time>2013-05-01T12:27:36Z</time>
      </trkpt>
      <trkpt lat="50.02868" lon="4.7748">
        <ele>242.39</ele>
        <time>2013-05-01T12:27:50Z</time>
      </trkpt>
      <trkpt lat="50.02804" lon="4.77458">
        <ele>242.39</ele>
        <time>2013-05-01T12:28:05Z</time>
      </trkpt>
      <trkpt lat="50.02769" lon="4.7747">
        <ele>242.87</ele>
        <time>2013-05-01T12:28:13Z</time>
      </trkpt>
      <trkpt lat="50.02732" lon="4.77506">
        <ele>243.35</ele>
        <time>2013-05-01T12:28:23Z</time>
      </trkpt>
      <trkpt lat="50.02681" lon="4.77567">
        <ele>242.87</ele>
        <time>2013-05-01T12:28:38Z</time>
      </trkpt>
      <trkpt lat="50.02666" lon="4.77618">
        <ele>245.75</ele>
        <time>2013-05-01T12:28:49Z</time>
      </trkpt>
      <trkpt lat="50.02648" lon="4.77694">
        <ele>251.04</ele>
        <time>2013-05-01T12:29:08Z</time>
      </trkpt>
      <trkpt lat="50.0262" lon="4.77779">
        <ele>253.44</ele>
        <time>2013-05-01T12:29:29Z</time>
      </trkpt>
      <trkpt lat="50.02594" lon="4.77857">
        <ele>257.77</ele>
        <time>2013-05-01T12:29:49Z</time>
      </trkpt>
      <trkpt lat="50.02591" lon="4.77949">
        <ele>262.58</ele>
        <time>2013-05-01T12:30:10Z</time>
      </trkpt>
      <trkpt lat="50.02605" lon="4.78039">
        <ele>268.83</ele>
        <time>2013-05-01T12:30:34Z</time>
      </trkpt>
      <trkpt lat="50.0263" lon="4.78117">
        <ele>272.67</ele>
        <time>2013-05-01T12:30:56Z</time>
      </trkpt>
      <trkpt lat="50.02684" lon="4.7826">
        <ele>277</ele>
        <time>2013-05-01T12:31:36Z</time>
      </trkpt>
      <trkpt lat="50.02725" lon="4.78358">
        <ele>283.25</ele>
        <time>2013-05-01T12:32:03Z</time>
      </trkpt>
      <trkpt lat="50.02749" lon="4.78415">
        <ele>287.57</ele>
        <time>2013-05-01T12:32:20Z</time>
      </trkpt>
      <trkpt lat="50.02769" lon="4.78459">
        <ele>289.01</ele>
        <time>2013-05-01T12:32:34Z</time>
      </trkpt>
      <trkpt lat="50.02772" lon="4.78492">
        <ele>290.46</ele>
        <time>2013-05-01T12:32:43Z</time>
      </trkpt>
      <trkpt lat="50.02766" lon="4.78501">
        <ele>291.9</ele>
        <time>2013-05-01T12:32:48Z</time>
      </trkpt>
      <trkpt lat="50.02748" lon="4.78511">
        <ele>292.38</ele>
        <time>2013-05-01T12:32:57Z</time>
      </trkpt>
      <trkpt lat="50.02732" lon="4.78564">
        <ele>294.78</ele>
        <time>2013-05-01T12:33:12Z</time>
      </trkpt>
      <trkpt lat="50.02724" lon="4.78619">
        <ele>294.78</ele>
        <time>2013-05-01T12:33:25Z</time>
      </trkpt>
      <trkpt lat="50.02705" lon="4.78739">
        <ele>298.15</ele>
        <time>2013-05-01T12:33:45Z</time>
      </trkpt>
      <trkpt lat="50.02714" lon="4.78804">
        <ele>301.51</ele>
        <time>2013-05-01T12:33:58Z</time>
      </trkpt>
      <trkpt lat="50.02736" lon="4.78847">
        <ele>301.99</ele>
        <time>2013-05-01T12:34:10Z</time>
      </trkpt>
      <trkpt lat="50.02794" lon="4.78901">
        <ele>304.88</ele>
        <time>2013-05-01T12:34:32Z</time>
      </trkpt>
      <trkpt lat="50.02842" lon="4.79005">
        <ele>306.8</ele>
        <time>2013-05-01T12:34:54Z</time>
      </trkpt>
      <trkpt lat="50.02882" lon="4.79133">
        <ele>308.24</ele>
        <time>2013-05-01T12:35:17Z</time>
      </trkpt>
      <trkpt lat="50.0292" lon="4.79192">
        <ele>309.2</ele>
        <time>2013-05-01T12:35:31Z</time>
      </trkpt>
      <trkpt lat="50.02951" lon="4.79229">
        <ele>311.12</ele>
        <time>2013-05-01T12:35:42Z</time>
      </trkpt>
      <trkpt lat="50.02966" lon="4.79273">
        <ele>316.41</ele>
        <time>2013-05-01T12:47:40Z</time>
      </trkpt>
      <trkpt lat="50.02992" lon="4.79303">
        <ele>318.81</ele>
        <time>2013-05-01T12:48:06Z</time>
      </trkpt>
      <trkpt lat="50.03001" lon="4.79324">
        <ele>320.26</ele>
        <time>2013-05-01T12:48:18Z</time>
      </trkpt>
      <trkpt lat="50.03027" lon="4.79344">
        <ele>323.14</ele>
        <time>2013-05-01T12:48:30Z</time>
      </trkpt>
      <trkpt lat="50.03094" lon="4.79381">
        <ele>328.43</ele>
        <time>2013-05-01T12:49:02Z</time>
      </trkpt>
      <trkpt lat="50.03173" lon="4.7938">
        <ele>333.23</ele>
        <time>2013-05-01T12:49:33Z</time>
      </trkpt>
      <trkpt lat="50.03248" lon="4.79381">
        <ele>339</ele>
        <time>2013-05-01T12:50:06Z</time>
      </trkpt>
      <trkpt lat="50.033" lon="4.79373">
        <ele>333.23</ele>
        <time>2013-05-01T12:50:27Z</time>
      </trkpt>
      <trkpt lat="50.03314" lon="4.7937">
        <ele>343.81</ele>
        <time>2013-05-01T12:50:34Z</time>
      </trkpt>
      <trkpt lat="50.03369" lon="4.7936">
        <ele>346.69</ele>
        <time>2013-05-01T12:51:00Z</time>
      </trkpt>
      <trkpt lat="50.03416" lon="4.79354">
        <ele>351.02</ele>
        <time>2013-05-01T12:51:22Z</time>
      </trkpt>
      <trkpt lat="50.03517" lon="4.79338">
        <ele>358.23</ele>
        <time>2013-05-01T12:52:02Z</time>
      </trkpt>
      <trkpt lat="50.03586" lon="4.79326">
        <ele>363.52</ele>
        <time>2013-05-01T12:52:29Z</time>
      </trkpt>
      <trkpt lat="50.03679" lon="4.79313">
        <ele>370.24</ele>
        <time>2013-05-01T12:53:07Z</time>
      </trkpt>
      <trkpt lat="50.03749" lon="4.79319">
        <ele>373.13</ele>
        <time>2013-05-01T12:53:32Z</time>
      </trkpt>
      <trkpt lat="50.03813" lon="4.79326">
        <ele>375.53</ele>
        <time>2013-05-01T12:53:56Z</time>
      </trkpt>
      <trkpt lat="50.03879" lon="4.79342">
        <ele>376.49</ele>
        <time>2013-05-01T12:54:21Z</time>
      </trkpt>
      <trkpt lat="50.03959" lon="4.79355">
        <ele>376.97</ele>
        <time>2013-05-01T12:54:49Z</time>
      </trkpt>
      <trkpt lat="50.04062" lon="4.79373">
        <ele>374.57</ele>
        <time>2013-05-01T12:55:15Z</time>
      </trkpt>
      <trkpt lat="50.04106" lon="4.79348">
        <ele>372.17</ele>
        <time>2013-05-01T12:55:22Z</time>
      </trkpt>
      <trkpt lat="50.04137" lon="4.79341">
        <ele>371.21</ele>
        <time>2013-05-01T12:55:26Z</time>
      </trkpt>
      <trkpt lat="50.04189" lon="4.79362">
        <ele>372.17</ele>
        <time>2013-05-01T12:55:37Z</time>
      </trkpt>
      <trkpt lat="50.04225" lon="4.79368">
        <ele>372.65</ele>
        <time>2013-05-01T12:55:49Z</time>
      </trkpt>
      <trkpt lat="50.04266" lon="4.79361">
        <ele>372.65</ele>
        <time>2013-05-01T12:56:02Z</time>
      </trkpt>
      <trkpt lat="50.04353" lon="4.79338">
        <ele>369.76</ele>
        <time>2013-05-01T12:56:25Z</time>
      </trkpt>
      <trkpt lat="50.04431" lon="4.79314">
        <ele>372.65</ele>
        <time>2013-05-01T12:56:49Z</time>
      </trkpt>
      <trkpt lat="50.04499" lon="4.79296">
        <ele>371.69</ele>
        <time>2013-05-01T12:57:09Z</time>
      </trkpt>
      <trkpt lat="50.04566" lon="4.7928">
        <ele>369.28</ele>
        <time>2013-05-01T12:57:26Z</time>
      </trkpt>
      <trkpt lat="50.04633" lon="4.79267">
        <ele>366.88</ele>
        <time>2013-05-01T12:57:44Z</time>
      </trkpt>
      <trkpt lat="50.0471" lon="4.79224">
        <ele>358.71</ele>
        <time>2013-05-01T12:57:53Z</time>
      </trkpt>
      <trkpt lat="50.04757" lon="4.79223">
        <ele>350.54</ele>
        <time>2013-05-01T12:57:58Z</time>
      </trkpt>
      <trkpt lat="50.04824" lon="4.79228">
        <ele>340.44</ele>
        <time>2013-05-01T12:58:06Z</time>
      </trkpt>
      <trkpt lat="50.04853" lon="4.79233">
        <ele>336.12</ele>
        <time>2013-05-01T12:58:09Z</time>
      </trkpt>
      <trkpt lat="50.04886" lon="4.79245">
        <ele>331.31</ele>
        <time>2013-05-01T12:58:12Z</time>
      </trkpt>
      <trkpt lat="50.04908" lon="4.79242">
        <ele>327.95</ele>
        <time>2013-05-01T12:58:14Z</time>
      </trkpt>
      <trkpt lat="50.04973" lon="4.79213">
        <ele>324.1</ele>
        <time>2013-05-01T12:58:20Z</time>
      </trkpt>
      <trkpt lat="50.05002" lon="4.79204">
        <ele>322.18</ele>
        <time>2013-05-01T12:58:23Z</time>
      </trkpt>
      <trkpt lat="50.05049" lon="4.79216">
        <ele>319.3</ele>
        <time>2013-05-01T12:58:28Z</time>
      </trkpt>
      <trkpt lat="50.05102" lon="4.79267">
        <ele>315.93</ele>
        <time>2013-05-01T12:58:35Z</time>
      </trkpt>
      <trkpt lat="50.05136" lon="4.79337">
        <ele>313.05</ele>
        <time>2013-05-01T12:58:42Z</time>
      </trkpt>
      <trkpt lat="50.05158" lon="4.79426">
        <ele>307.28</ele>
        <time>2013-05-01T12:58:49Z</time>
      </trkpt>
      <trkpt lat="50.05163" lon="4.79488">
        <ele>302.95</ele>
        <time>2013-05-01T12:58:53Z</time>
      </trkpt>
      <trkpt lat="50.05167" lon="4.79535">
        <ele>299.59</ele>
        <time>2013-05-01T12:58:56Z</time>
      </trkpt>
      <trkpt lat="50.05153" lon="4.79599">
        <ele>294.78</ele>
        <time>2013-05-01T12:59:01Z</time>
      </trkpt>
      <trkpt lat="50.05161" lon="4.79654">
        <ele>292.38</ele>
        <time>2013-05-01T12:59:05Z</time>
      </trkpt>
      <trkpt lat="50.05184" lon="4.79721">
        <ele>288.05</ele>
        <time>2013-05-01T12:59:10Z</time>
      </trkpt>
      <trkpt lat="50.05227" lon="4.79866">
        <ele>288.53</ele>
        <time>2013-05-01T12:59:31Z</time>
      </trkpt>
      <trkpt lat="50.05239" lon="4.79956">
        <ele>289.97</ele>
        <time>2013-05-01T12:59:51Z</time>
      </trkpt>
      <trkpt lat="50.05258" lon="4.80007">
        <ele>289.01</ele>
        <time>2013-05-01T13:00:02Z</time>
      </trkpt>
      <trkpt lat="50.05307" lon="4.80043">
        <ele>287.09</ele>
        <time>2013-05-01T13:00:56Z</time>
      </trkpt>
      <trkpt lat="50.05369" lon="4.80095">
        <ele>283.73</ele>
        <time>2013-05-01T13:01:10Z</time>
      </trkpt>
      <trkpt lat="50.05418" lon="4.80142">
        <ele>280.36</ele>
        <time>2013-05-01T13:01:20Z</time>
      </trkpt>
      <trkpt lat="50.05452" lon="4.80175">
        <ele>277</ele>
        <time>2013-05-01T13:01:26Z</time>
      </trkpt>
      <trkpt lat="50.05503" lon="4.80253">
        <ele>270.27</ele>
        <time>2013-05-01T13:01:36Z</time>
      </trkpt>
      <trkpt lat="50.05542" lon="4.80301">
        <ele>262.1</ele>
        <time>2013-05-01T13:01:44Z</time>
      </trkpt>
      <trkpt lat="50.0556" lon="4.80281">
        <ele>260.17</ele>
        <time>2013-05-01T13:01:47Z</time>
      </trkpt>
      <trkpt lat="50.05578" lon="4.80243">
        <ele>255.85</ele>
        <time>2013-05-01T13:01:51Z</time>
      </trkpt>
      <trkpt lat="50.05597" lon="4.80221">
        <ele>252.48</ele>
        <time>2013-05-01T13:01:55Z</time>
      </trkpt>
      <trkpt lat="50.05607" lon="4.80248">
        <ele>250.08</ele>
        <time>2013-05-01T13:01:58Z</time>
      </trkpt>
      <trkpt lat="50.05604" lon="4.80291">
        <ele>248.16</ele>
        <time>2013-05-01T13:02:02Z</time>
      </trkpt>
      <trkpt lat="50.05613" lon="4.80346">
        <ele>243.83</ele>
        <time>2013-05-01T13:02:09Z</time>
      </trkpt>
      <trkpt lat="50.0563" lon="4.80341">
        <ele>241.91</ele>
        <time>2013-05-01T13:02:12Z</time>
      </trkpt>
      <trkpt lat="50.0565" lon="4.80342">
        <ele>239.51</ele>
        <time>2013-05-01T13:02:15Z</time>
      </trkpt>
      <trkpt lat="50.0567" lon="4.8035">
        <ele>236.14</ele>
        <time>2013-05-01T13:02:21Z</time>
      </trkpt>
      <trkpt lat="50.05692" lon="4.80377">
        <ele>236.62</ele>
        <time>2013-05-01T13:02:32Z</time>
      </trkpt>
      <trkpt lat="50.05705" lon="4.80419">
        <ele>235.66</ele>
        <time>2013-05-01T13:02:44Z</time>
      </trkpt>
      <trkpt lat="50.0573" lon="4.80512">
        <ele>234.22</ele>
        <time>2013-05-01T13:03:07Z</time>
      </trkpt>
      <trkpt lat="50.05755" lon="4.80615">
        <ele>232.3</ele>
        <time>2013-05-01T13:03:25Z</time>
      </trkpt>
      <trkpt lat="50.05776" lon="4.8069">
        <ele>228.93</ele>
        <time>2013-05-01T13:03:33Z</time>
      </trkpt>
      <trkpt lat="50.05806" lon="4.80813">
        <ele>223.16</ele>
        <time>2013-05-01T13:03:45Z</time>
      </trkpt>
      <trkpt lat="50.05855" lon="4.8095">
        <ele>219.32</ele>
        <time>2013-05-01T13:04:00Z</time>
      </trkpt>
      <trkpt lat="50.0591" lon="4.81051">
        <ele>215.95</ele>
        <time>2013-05-01T13:04:14Z</time>
      </trkpt>
      <trkpt lat="50.05958" lon="4.81095">
        <ele>211.15</ele>
        <time>2013-05-01T13:04:23Z</time>
      </trkpt>
      <trkpt lat="50.05998" lon="4.81144">
        <ele>208.74</ele>
        <time>2013-05-01T13:04:29Z</time>
      </trkpt>
      <trkpt lat="50.06017" lon="4.8119">
        <ele>205.38</ele>
        <time>2013-05-01T13:04:33Z</time>
      </trkpt>
      <trkpt lat="50.0602" lon="4.81269">
        <ele>202.01</ele>
        <time>2013-05-01T13:04:40Z</time>
      </trkpt>
      <trkpt lat="50.06017" lon="4.81364">
        <ele>202.01</ele>
        <time>2013-05-01T13:04:53Z</time>
      </trkpt>
      <trkpt lat="50.06038" lon="4.81553">
        <ele>198.17</ele>
        <time>2013-05-01T13:05:16Z</time>
      </trkpt>
      <trkpt lat="50.06058" lon="4.81657">
        <ele>194.32</ele>
        <time>2013-05-01T13:05:27Z</time>
      </trkpt>
      <trkpt lat="50.06069" lon="4.8173">
        <ele>190.96</ele>
        <time>2013-05-01T13:05:34Z</time>
      </trkpt>
      <trkpt lat="50.06072" lon="4.81763">
        <ele>186.63</ele>
        <time>2013-05-01T13:06:58Z</time>
      </trkpt>
      <trkpt lat="50.06101" lon="4.8177">
        <ele>188.08</ele>
        <time>2013-05-01T13:07:41Z</time>
      </trkpt>
      <trkpt lat="50.0612" lon="4.81783">
        <ele>192.88</ele>
        <time>2013-05-01T13:08:23Z</time>
      </trkpt>
      <trkpt lat="50.06133" lon="4.81803">
        <ele>192.4</ele>
        <time>2013-05-01T13:08:34Z</time>
      </trkpt>
      <trkpt lat="50.06135" lon="4.81805">
        <ele>192.88</ele>
        <time>2013-05-01T13:08:35Z</time>
      </trkpt>
      <trkpt lat="50.06191" lon="4.81876">
        <ele>192.88</ele>
        <time>2013-05-01T13:08:59Z</time>
      </trkpt>
      <trkpt lat="50.06232" lon="4.81936">
        <ele>193.36</ele>
        <time>2013-05-01T13:09:18Z</time>
      </trkpt>
      <trkpt lat="50.06275" lon="4.82">
        <ele>193.84</ele>
        <time>2013-05-01T13:09:51Z</time>
      </trkpt>
      <trkpt lat="50.06323" lon="4.82057">
        <ele>193.36</ele>
        <time>2013-05-01T13:10:11Z</time>
      </trkpt>
      <trkpt lat="50.06352" lon="4.82072">
        <ele>194.32</ele>
        <time>2013-05-01T13:10:17Z</time>
      </trkpt>
      <trkpt lat="50.0641" lon="4.82056">
        <ele>193.36</ele>
        <time>2013-05-01T13:10:41Z</time>
      </trkpt>
      <trkpt lat="50.06451" lon="4.82039">
        <ele>193.36</ele>
        <time>2013-05-01T13:11:05Z</time>
      </trkpt>
      <trkpt lat="50.06483" lon="4.81996">
        <ele>193.36</ele>
        <time>2013-05-01T13:11:22Z</time>
      </trkpt>
      <trkpt lat="50.06511" lon="4.81955">
        <ele>193.84</ele>
        <time>2013-05-01T13:11:37Z</time>
      </trkpt>
      <trkpt lat="50.06517" lon="4.81935">
        <ele>193.36</ele>
        <time>2013-05-01T13:11:45Z</time>
      </trkpt>
      <trkpt lat="50.0655" lon="4.81875">
        <ele>192.88</ele>
        <time>2013-05-01T13:12:06Z</time>
      </trkpt>
      <trkpt lat="50.06563" lon="4.8184">
        <ele>192.88</ele>
        <time>2013-05-01T13:12:38Z</time>
      </trkpt>
      <trkpt lat="50.06593" lon="4.81831">
        <ele>186.63</ele>
        <time>2013-05-01T13:12:49Z</time>
      </trkpt>
      <trkpt lat="50.06619" lon="4.81806">
        <ele>183.75</ele>
        <time>2013-05-01T13:13:00Z</time>
      </trkpt>
      <trkpt lat="50.06646" lon="4.81779">
        <ele>182.31</ele>
        <time>2013-05-01T13:13:10Z</time>
      </trkpt>
      <trkpt lat="50.06664" lon="4.81754">
        <ele>180.38</ele>
        <time>2013-05-01T13:13:25Z</time>
      </trkpt>
      <trkpt lat="50.06726" lon="4.81661">
        <ele>177.5</ele>
        <time>2013-05-01T13:14:43Z</time>
      </trkpt>
      <trkpt lat="50.06757" lon="4.81622">
        <ele>177.02</ele>
        <time>2013-05-01T13:15:00Z</time>
      </trkpt>
      <trkpt lat="50.068" lon="4.81584">
        <ele>177.98</ele>
        <time>2013-05-01T13:15:43Z</time>
      </trkpt>
      <trkpt lat="50.06848" lon="4.81562">
        <ele>176.54</ele>
        <time>2013-05-01T13:16:18Z</time>
      </trkpt>
      <trkpt lat="50.06913" lon="4.81548">
        <ele>178.46</ele>
        <time>2013-05-01T13:17:02Z</time>
      </trkpt>
      <trkpt lat="50.06976" lon="4.81549">
        <ele>176.06</ele>
        <time>2013-05-01T13:17:26Z</time>
      </trkpt>
      <trkpt lat="50.07018" lon="4.81556">
        <ele>176.06</ele>
        <time>2013-05-01T13:17:51Z</time>
      </trkpt>
      <trkpt lat="50.07075" lon="4.81566">
        <ele>177.02</ele>
        <time>2013-05-01T13:20:04Z</time>
      </trkpt>
      <trkpt lat="50.07113" lon="4.81577">
        <ele>177.02</ele>
        <time>2013-05-01T13:20:46Z</time>
      </trkpt>
      <trkpt lat="50.07159" lon="4.81595">
        <ele>177.5</ele>
        <time>2013-05-01T13:21:13Z</time>
      </trkpt>
      <trkpt lat="50.07207" lon="4.81607">
        <ele>179.42</ele>
        <time>2013-05-01T13:21:32Z</time>
      </trkpt>
      <trkpt lat="50.07273" lon="4.81618">
        <ele>179.9</ele>
        <time>2013-05-01T13:21:51Z</time>
      </trkpt>
      <trkpt lat="50.07317" lon="4.8163">
        <ele>180.87</ele>
        <time>2013-05-01T13:22:13Z</time>
      </trkpt>
      <trkpt lat="50.07342" lon="4.81631">
        <ele>178.94</ele>
        <time>2013-05-01T13:22:21Z</time>
      </trkpt>
      <trkpt lat="50.07386" lon="4.81618">
        <ele>177.5</ele>
        <time>2013-05-01T13:22:30Z</time>
      </trkpt>
      <trkpt lat="50.0743" lon="4.81584">
        <ele>177.02</ele>
        <time>2013-05-01T13:22:41Z</time>
      </trkpt>
      <trkpt lat="50.07474" lon="4.81545">
        <ele>176.54</ele>
        <time>2013-05-01T13:22:53Z</time>
      </trkpt>
      <trkpt lat="50.07511" lon="4.81505">
        <ele>176.54</ele>
        <time>2013-05-01T13:23:06Z</time>
      </trkpt>
      <trkpt lat="50.07551" lon="4.81471">
        <ele>178.46</ele>
        <time>2013-05-01T13:23:51Z</time>
      </trkpt>
      <trkpt lat="50.07584" lon="4.81448">
        <ele>183.75</ele>
        <time>2013-05-01T13:24:16Z</time>
      </trkpt>
      <trkpt lat="50.07585" lon="4.81448">
        <ele>183.75</ele>
        <time>2013-05-01T13:24:17Z</time>
      </trkpt>
      <trkpt lat="50.07629" lon="4.8144">
        <ele>182.79</ele>
        <time>2013-05-01T13:27:06Z</time>
      </trkpt>
      <trkpt lat="50.07671" lon="4.81454">
        <ele>177.98</ele>
        <time>2013-05-01T13:27:24Z</time>
      </trkpt>
      <trkpt lat="50.07718" lon="4.81496">
        <ele>174.62</ele>
        <time>2013-05-01T13:27:35Z</time>
      </trkpt>
      <trkpt lat="50.07738" lon="4.8152">
        <ele>176.54</ele>
        <time>2013-05-01T13:27:47Z</time>
      </trkpt>
      <trkpt lat="50.07767" lon="4.81573">
        <ele>176.06</ele>
        <time>2013-05-01T13:27:58Z</time>
      </trkpt>
      <trkpt lat="50.07791" lon="4.81643">
        <ele>175.1</ele>
        <time>2013-05-01T13:28:11Z</time>
      </trkpt>
      <trkpt lat="50.07825" lon="4.81696">
        <ele>177.5</ele>
        <time>2013-05-01T13:28:29Z</time>
      </trkpt>
      <trkpt lat="50.07875" lon="4.81763">
        <ele>184.71</ele>
        <time>2013-05-01T13:29:11Z</time>
      </trkpt>
      <trkpt lat="50.07911" lon="4.81795">
        <ele>187.59</ele>
        <time>2013-05-01T13:29:37Z</time>
      </trkpt>
      <trkpt lat="50.07962" lon="4.81843">
        <ele>186.15</ele>
        <time>2013-05-01T13:31:31Z</time>
      </trkpt>
      <trkpt lat="50.07994" lon="4.81856">
        <ele>182.79</ele>
        <time>2013-05-01T13:31:37Z</time>
      </trkpt>
      <trkpt lat="50.08052" lon="4.81882">
        <ele>177.98</ele>
        <time>2013-05-01T13:31:50Z</time>
      </trkpt>
      <trkpt lat="50.08082" lon="4.81878">
        <ele>179.9</ele>
        <time>2013-05-01T13:32:35Z</time>
      </trkpt>
      <trkpt lat="50.08102" lon="4.81847">
        <ele>186.15</ele>
        <time>2013-05-01T13:32:58Z</time>
      </trkpt>
      <trkpt lat="50.08111" lon="4.81817">
        <ele>189.52</ele>
        <time>2013-05-01T13:33:13Z</time>
      </trkpt>
      <trkpt lat="50.08117" lon="4.81789">
        <ele>191.44</ele>
        <time>2013-05-01T13:33:26Z</time>
      </trkpt>
      <trkpt lat="50.08127" lon="4.81735">
        <ele>197.69</ele>
        <time>2013-05-01T13:33:54Z</time>
      </trkpt>
      <trkpt lat="50.08122" lon="4.81699">
        <ele>200.57</ele>
        <time>2013-05-01T13:34:09Z</time>
      </trkpt>
      <trkpt lat="50.0812" lon="4.81671">
        <ele>204.9</ele>
        <time>2013-05-01T13:34:24Z</time>
      </trkpt>
      <trkpt lat="50.08128" lon="4.81636">
        <ele>208.26</ele>
        <time>2013-05-01T13:34:43Z</time>
      </trkpt>
      <trkpt lat="50.08152" lon="4.81595">
        <ele>212.11</ele>
        <time>2013-05-01T13:35:04Z</time>
      </trkpt>
      <trkpt lat="50.08166" lon="4.81585">
        <ele>215.47</ele>
        <time>2013-05-01T13:35:17Z</time>
      </trkpt>
      <trkpt lat="50.08183" lon="4.81579">
        <ele>218.84</ele>
        <time>2013-05-01T13:35:31Z</time>
      </trkpt>
      <trkpt lat="50.08209" lon="4.81579">
        <ele>222.2</ele>
        <time>2013-05-01T13:35:52Z</time>
      </trkpt>
      <trkpt lat="50.08211" lon="4.81579">
        <ele>222.68</ele>
        <time>2013-05-01T13:35:54Z</time>
      </trkpt>
      <trkpt lat="50.08237" lon="4.81577">
        <ele>226.53</ele>
        <time>2013-05-01T13:36:12Z</time>
      </trkpt>
      <trkpt lat="50.0826" lon="4.81579">
        <ele>227.49</ele>
        <time>2013-05-01T13:36:23Z</time>
      </trkpt>
      <trkpt lat="50.08286" lon="4.81591">
        <ele>229.41</ele>
        <time>2013-05-01T13:36:40Z</time>
      </trkpt>
      <trkpt lat="50.08308" lon="4.81595">
        <ele>231.33</ele>
        <time>2013-05-01T13:36:52Z</time>
      </trkpt>
      <trkpt lat="50.0833" lon="4.81598">
        <ele>234.22</ele>
        <time>2013-05-01T13:37:05Z</time>
      </trkpt>
      <trkpt lat="50.08377" lon="4.81601">
        <ele>242.39</ele>
        <time>2013-05-01T13:37:37Z</time>
      </trkpt>
      <trkpt lat="50.08403" lon="4.81608">
        <ele>246.72</ele>
        <time>2013-05-01T13:37:59Z</time>
      </trkpt>
      <trkpt lat="50.08429" lon="4.8162">
        <ele>247.68</ele>
        <time>2013-05-01T13:38:09Z</time>
      </trkpt>
      <trkpt lat="50.08445" lon="4.81604">
        <ele>251.52</ele>
        <time>2013-05-01T13:38:22Z</time>
      </trkpt>
      <trkpt lat="50.0845" lon="4.81583">
        <ele>253.93</ele>
        <time>2013-05-01T13:38:33Z</time>
      </trkpt>
      <trkpt lat="50.08439" lon="4.81558">
        <ele>257.77</ele>
        <time>2013-05-01T13:38:47Z</time>
      </trkpt>
      <trkpt lat="50.08435" lon="4.81524">
        <ele>262.58</ele>
        <time>2013-05-01T13:39:06Z</time>
      </trkpt>
      <trkpt lat="50.08442" lon="4.81493">
        <ele>264.5</ele>
        <time>2013-05-01T13:39:18Z</time>
      </trkpt>
      <trkpt lat="50.08463" lon="4.8145">
        <ele>269.31</ele>
        <time>2013-05-01T13:39:40Z</time>
      </trkpt>
      <trkpt lat="50.08502" lon="4.81435">
        <ele>271.71</ele>
        <time>2013-05-01T13:40:01Z</time>
      </trkpt>
      <trkpt lat="50.08533" lon="4.8144">
        <ele>275.56</ele>
        <time>2013-05-01T13:40:19Z</time>
      </trkpt>
      <trkpt lat="50.08551" lon="4.81435">
        <ele>277.96</ele>
        <time>2013-05-01T13:40:30Z</time>
      </trkpt>
      <trkpt lat="50.08557" lon="4.8142">
        <ele>279.88</ele>
        <time>2013-05-01T13:40:43Z</time>
      </trkpt>
      <trkpt lat="50.08562" lon="4.81388">
        <ele>283.73</ele>
        <time>2013-05-01T13:43:50Z</time>
      </trkpt>
      <trkpt lat="50.08567" lon="4.81361">
        <ele>285.65</ele>
        <time>2013-05-01T13:44:03Z</time>
      </trkpt>
      <trkpt lat="50.08566" lon="4.81357">
        <ele>286.13</ele>
        <time>2013-05-01T13:44:06Z</time>
      </trkpt>
      <trkpt lat="50.08567" lon="4.81333">
        <ele>288.05</ele>
        <time>2013-05-01T13:44:15Z</time>
      </trkpt>
      <trkpt lat="50.08572" lon="4.81304">
        <ele>289.97</ele>
        <time>2013-05-01T13:44:27Z</time>
      </trkpt>
      <trkpt lat="50.0857" lon="4.81268">
        <ele>294.78</ele>
        <time>2013-05-01T13:44:46Z</time>
      </trkpt>
      <trkpt lat="50.08567" lon="4.81237">
        <ele>297.67</ele>
        <time>2013-05-01T13:44:58Z</time>
      </trkpt>
      <trkpt lat="50.08563" lon="4.81198">
        <ele>301.51</ele>
        <time>2013-05-01T13:45:15Z</time>
      </trkpt>
      <trkpt lat="50.08555" lon="4.81161">
        <ele>303.91</ele>
        <time>2013-05-01T13:45:32Z</time>
      </trkpt>
      <trkpt lat="50.08553" lon="4.81138">
        <ele>305.36</ele>
        <time>2013-05-01T13:45:44Z</time>
      </trkpt>
      <trkpt lat="50.08555" lon="4.81106">
        <ele>304.39</ele>
        <time>2013-05-01T13:54:36Z</time>
      </trkpt>
      <trkpt lat="50.08592" lon="4.81067">
        <ele>301.51</ele>
        <time>2013-05-01T13:54:56Z</time>
      </trkpt>
      <trkpt lat="50.08618" lon="4.81077">
        <ele>298.63</ele>
        <time>2013-05-01T13:55:05Z</time>
      </trkpt>
      <trkpt lat="50.08633" lon="4.81087">
        <ele>297.18</ele>
        <time>2013-05-01T13:55:08Z</time>
      </trkpt>
      <trkpt lat="50.08644" lon="4.81094">
        <ele>296.22</ele>
        <time>2013-05-01T13:55:10Z</time>
      </trkpt>
      <trkpt lat="50.08669" lon="4.81124">
        <ele>293.82</ele>
        <time>2013-05-01T13:55:14Z</time>
      </trkpt>
      <trkpt lat="50.08687" lon="4.81154">
        <ele>290.94</ele>
        <time>2013-05-01T13:55:17Z</time>
      </trkpt>
      <trkpt lat="50.0872" lon="4.81182">
        <ele>286.13</ele>
        <time>2013-05-01T13:55:21Z</time>
      </trkpt>
      <trkpt lat="50.08759" lon="4.81203">
        <ele>282.28</ele>
        <time>2013-05-01T13:55:25Z</time>
      </trkpt>
      <trkpt lat="50.08815" lon="4.81242">
        <ele>275.56</ele>
        <time>2013-05-01T13:55:31Z</time>
      </trkpt>
      <trkpt lat="50.0884" lon="4.8127">
        <ele>271.71</ele>
        <time>2013-05-01T13:55:34Z</time>
      </trkpt>
      <trkpt lat="50.08855" lon="4.81305">
        <ele>269.79</ele>
        <time>2013-05-01T13:55:37Z</time>
      </trkpt>
      <trkpt lat="50.08861" lon="4.81358">
        <ele>268.35</ele>
        <time>2013-05-01T13:55:41Z</time>
      </trkpt>
      <trkpt lat="50.0887" lon="4.81407">
        <ele>264.98</ele>
        <time>2013-05-01T13:55:45Z</time>
      </trkpt>
      <trkpt lat="50.08876" lon="4.81418">
        <ele>264.5</ele>
        <time>2013-05-01T13:55:46Z</time>
      </trkpt>
      <trkpt lat="50.08904" lon="4.81469">
        <ele>260.17</ele>
        <time>2013-05-01T13:55:50Z</time>
      </trkpt>
      <trkpt lat="50.08918" lon="4.81498">
        <ele>258.25</ele>
        <time>2013-05-01T13:55:52Z</time>
      </trkpt>
      <trkpt lat="50.08949" lon="4.81548">
        <ele>253.44</ele>
        <time>2013-05-01T13:55:56Z</time>
      </trkpt>
      <trkpt lat="50.08992" lon="4.81582">
        <ele>245.75</ele>
        <time>2013-05-01T13:56:02Z</time>
      </trkpt>
      <trkpt lat="50.09" lon="4.81576">
        <ele>245.75</ele>
        <time>2013-05-01T13:56:03Z</time>
      </trkpt>
      <trkpt lat="50.09018" lon="4.81548">
        <ele>242.39</ele>
        <time>2013-05-01T13:56:06Z</time>
      </trkpt>
      <trkpt lat="50.0907" lon="4.81458">
        <ele>232.78</ele>
        <time>2013-05-01T13:56:16Z</time>
      </trkpt>
      <trkpt lat="50.09072" lon="4.81444">
        <ele>231.81</ele>
        <time>2013-05-01T13:56:17Z</time>
      </trkpt>
      <trkpt lat="50.09075" lon="4.81418">
        <ele>229.89</ele>
        <time>2013-05-01T13:56:19Z</time>
      </trkpt>
      <trkpt lat="50.09097" lon="4.81401">
        <ele>225.57</ele>
        <time>2013-05-01T13:56:25Z</time>
      </trkpt>
      <trkpt lat="50.0912" lon="4.81439">
        <ele>223.16</ele>
        <time>2013-05-01T13:56:30Z</time>
      </trkpt>
      <trkpt lat="50.09132" lon="4.81456">
        <ele>221.24</ele>
        <time>2013-05-01T13:56:32Z</time>
      </trkpt>
      <trkpt lat="50.09166" lon="4.81471">
        <ele>217.4</ele>
        <time>2013-05-01T13:56:37Z</time>
      </trkpt>
      <trkpt lat="50.0918" lon="4.8146">
        <ele>213.55</ele>
        <time>2013-05-01T13:56:41Z</time>
      </trkpt>
      <trkpt lat="50.09142" lon="4.81397">
        <ele>209.22</ele>
        <time>2013-05-01T13:56:47Z</time>
      </trkpt>
      <trkpt lat="50.09119" lon="4.81341">
        <ele>205.38</ele>
        <time>2013-05-01T13:56:51Z</time>
      </trkpt>
      <trkpt lat="50.09113" lon="4.81328">
        <ele>204.9</ele>
        <time>2013-05-01T13:56:52Z</time>
      </trkpt>
      <trkpt lat="50.0907" lon="4.81305">
        <ele>200.57</ele>
        <time>2013-05-01T13:56:57Z</time>
      </trkpt>
      <trkpt lat="50.09053" lon="4.81317">
        <ele>199.61</ele>
        <time>2013-05-01T13:56:59Z</time>
      </trkpt>
      <trkpt lat="50.08998" lon="4.81342">
        <ele>192.88</ele>
        <time>2013-05-01T13:57:07Z</time>
      </trkpt>
      <trkpt lat="50.08982" lon="4.8134">
        <ele>190.48</ele>
        <time>2013-05-01T13:57:10Z</time>
      </trkpt>
      <trkpt lat="50.08986" lon="4.81299">
        <ele>187.11</ele>
        <time>2013-05-01T13:57:14Z</time>
      </trkpt>
      <trkpt lat="50.08993" lon="4.8122">
        <ele>183.27</ele>
        <time>2013-05-01T13:57:18Z</time>
      </trkpt>
      <trkpt lat="50.09002" lon="4.81115">
        <ele>179.42</ele>
        <time>2013-05-01T13:57:22Z</time>
      </trkpt>
      <trkpt lat="50.09002" lon="4.8101">
        <ele>172.21</ele>
        <time>2013-05-01T13:57:28Z</time>
      </trkpt>
      <trkpt lat="50.09015" lon="4.81003">
        <ele>169.33</ele>
        <time>2013-05-01T13:57:32Z</time>
      </trkpt>
      <trkpt lat="50.09031" lon="4.81059">
        <ele>165.96</ele>
        <time>2013-05-01T13:57:38Z</time>
      </trkpt>
      <trkpt lat="50.09053" lon="4.8107">
        <ele>161.64</ele>
        <time>2013-05-01T13:57:43Z</time>
      </trkpt>
      <trkpt lat="50.09061" lon="4.81049">
        <ele>160.68</ele>
        <time>2013-05-01T13:57:45Z</time>
      </trkpt>
      <trkpt lat="50.09078" lon="4.80985">
        <ele>157.31</ele>
        <time>2013-05-01T13:57:50Z</time>
      </trkpt>
      <trkpt lat="50.09079" lon="4.80937">
        <ele>152.99</ele>
        <time>2013-05-01T13:57:54Z</time>
      </trkpt>
      <trkpt lat="50.09086" lon="4.80909">
        <ele>149.14</ele>
        <time>2013-05-01T13:57:58Z</time>
      </trkpt>
      <trkpt lat="50.09097" lon="4.80911">
        <ele>147.7</ele>
        <time>2013-05-01T13:58:00Z</time>
      </trkpt>
      <trkpt lat="50.09109" lon="4.80925">
        <ele>146.74</ele>
        <time>2013-05-01T13:58:02Z</time>
      </trkpt>
      <trkpt lat="50.09121" lon="4.80957">
        <ele>143.85</ele>
        <time>2013-05-01T13:58:05Z</time>
      </trkpt>
      <trkpt lat="50.0914" lon="4.80997">
        <ele>139.05</ele>
        <time>2013-05-01T13:58:10Z</time>
      </trkpt>
      <trkpt lat="50.09153" lon="4.80981">
        <ele>137.13</ele>
        <time>2013-05-01T13:58:31Z</time>
      </trkpt>
      <trkpt lat="50.0918" lon="4.80953">
        <ele>133.28</ele>
        <time>2013-05-01T13:58:46Z</time>
      </trkpt>
      <trkpt lat="50.09226" lon="4.80899">
        <ele>127.99</ele>
        <time>2013-05-01T13:59:12Z</time>
      </trkpt>
      <trkpt lat="50.09252" lon="4.80908">
        <ele>126.07</ele>
        <time>2013-05-01T13:59:20Z</time>
      </trkpt>
      <trkpt lat="50.09358" lon="4.81034">
        <ele>125.11</ele>
        <time>2013-05-01T13:59:55Z</time>
      </trkpt>
      <trkpt lat="50.09442" lon="4.81099">
        <ele>125.11</ele>
        <time>2013-05-01T14:00:21Z</time>
      </trkpt>
      <trkpt lat="50.09529" lon="4.81119">
        <ele>126.07</ele>
        <time>2013-05-01T14:00:48Z</time>
      </trkpt>
      <trkpt lat="50.09652" lon="4.81125">
        <ele>125.59</ele>
        <time>2013-05-01T14:01:16Z</time>
      </trkpt>
      <trkpt lat="50.09758" lon="4.81133">
        <ele>124.63</ele>
        <time>2013-05-01T14:01:38Z</time>
      </trkpt>
      <trkpt lat="50.09819" lon="4.81137">
        <ele>124.63</ele>
        <time>2013-05-01T14:01:51Z</time>
      </trkpt>
      <trkpt lat="50.09908" lon="4.81156">
        <ele>124.15</ele>
        <time>2013-05-01T14:02:10Z</time>
      </trkpt>
      <trkpt lat="50.09912" lon="4.81156">
        <ele>124.15</ele>
        <time>2013-05-01T14:02:11Z</time>
      </trkpt>
      <trkpt lat="50.09978" lon="4.81168">
        <ele>124.63</ele>
        <time>2013-05-01T14:02:26Z</time>
      </trkpt>
      <trkpt lat="50.10122" lon="4.8115">
        <ele>119.34</ele>
        <time>2013-05-01T14:03:02Z</time>
      </trkpt>
      <trkpt lat="50.10197" lon="4.81126">
        <ele>122.22</ele>
        <time>2013-05-01T14:03:22Z</time>
      </trkpt>
      <trkpt lat="50.10256" lon="4.81095">
        <ele>127.51</ele>
        <time>2013-05-01T14:03:39Z</time>
      </trkpt>
      <trkpt lat="50.10382" lon="4.81025">
        <ele>124.63</ele>
        <time>2013-05-01T14:04:07Z</time>
      </trkpt>
      <trkpt lat="50.10638" lon="4.80797">
        <ele>123.19</ele>
        <time>2013-05-01T14:05:10Z</time>
      </trkpt>
      <trkpt lat="50.10642" lon="4.80793">
        <ele>123.19</ele>
        <time>2013-05-01T14:05:11Z</time>
      </trkpt>
      <trkpt lat="50.10719" lon="4.80726">
        <ele>123.19</ele>
        <time>2013-05-01T14:05:30Z</time>
      </trkpt>
      <trkpt lat="50.10735" lon="4.80711">
        <ele>123.19</ele>
        <time>2013-05-01T14:05:34Z</time>
      </trkpt>
      <trkpt lat="50.10817" lon="4.80644">
        <ele>123.67</ele>
        <time>2013-05-01T14:05:54Z</time>
      </trkpt>
      <trkpt lat="50.10897" lon="4.80575">
        <ele>123.67</ele>
        <time>2013-05-01T14:06:14Z</time>
      </trkpt>
      <trkpt lat="50.1098" lon="4.80502">
        <ele>122.71</ele>
        <time>2013-05-01T14:06:33Z</time>
      </trkpt>
      <trkpt lat="50.11146" lon="4.80339">
        <ele>121.74</ele>
        <time>2013-05-01T14:07:11Z</time>
      </trkpt>
      <trkpt lat="50.11287" lon="4.80213">
        <ele>121.74</ele>
        <time>2013-05-01T14:07:45Z</time>
      </trkpt>
      <trkpt lat="50.11316" lon="4.80187">
        <ele>121.26</ele>
        <time>2013-05-01T14:07:52Z</time>
      </trkpt>
      <trkpt lat="50.11511" lon="4.80031">
        <ele>122.71</ele>
        <time>2013-05-01T14:08:39Z</time>
      </trkpt>
      <trkpt lat="50.1161" lon="4.79949">
        <ele>121.26</ele>
        <time>2013-05-01T14:09:05Z</time>
      </trkpt>
      <trkpt lat="50.11735" lon="4.79867">
        <ele>120.3</ele>
        <time>2013-05-01T14:09:35Z</time>
      </trkpt>
      <trkpt lat="50.1174" lon="4.79865">
        <ele>120.3</ele>
        <time>2013-05-01T14:09:36Z</time>
      </trkpt>
      <trkpt lat="50.11757" lon="4.79857">
        <ele>120.3</ele>
        <time>2013-05-01T14:09:40Z</time>
      </trkpt>
      <trkpt lat="50.11764" lon="4.79853">
        <ele>120.3</ele>
        <time>2013-05-01T14:09:42Z</time>
      </trkpt>
      <trkpt lat="50.12087" lon="4.79707">
        <ele>119.82</ele>
        <time>2013-05-01T14:10:58Z</time>
      </trkpt>
      <trkpt lat="50.12152" lon="4.79682">
        <ele>119.82</ele>
        <time>2013-05-01T14:11:13Z</time>
      </trkpt>
      <trkpt lat="50.12246" lon="4.79681">
        <ele>118.86</ele>
        <time>2013-05-01T14:11:33Z</time>
      </trkpt>
      <trkpt lat="50.12423" lon="4.79701">
        <ele>118.38</ele>
        <time>2013-05-01T14:12:15Z</time>
      </trkpt>
      <trkpt lat="50.1262" lon="4.79792">
        <ele>118.38</ele>
        <time>2013-05-01T14:13:03Z</time>
      </trkpt>
      <trkpt lat="50.12709" lon="4.79876">
        <ele>117.9</ele>
        <time>2013-05-01T14:13:25Z</time>
      </trkpt>
      <trkpt lat="50.12843" lon="4.80052">
        <ele>118.38</ele>
        <time>2013-05-01T14:14:02Z</time>
      </trkpt>
      <trkpt lat="50.12953" lon="4.80285">
        <ele>118.86</ele>
        <time>2013-05-01T14:14:41Z</time>
      </trkpt>
      <trkpt lat="50.13047" lon="4.80525">
        <ele>118.86</ele>
        <time>2013-05-01T14:15:17Z</time>
      </trkpt>
      <trkpt lat="50.13086" lon="4.80666">
        <ele>117.42</ele>
        <time>2013-05-01T14:15:37Z</time>
      </trkpt>
      <trkpt lat="50.13093" lon="4.80695">
        <ele>117.9</ele>
        <time>2013-05-01T14:15:42Z</time>
      </trkpt>
      <trkpt lat="50.13149" lon="4.80924">
        <ele>117.9</ele>
        <time>2013-05-01T14:16:18Z</time>
      </trkpt>
      <trkpt lat="50.13183" lon="4.8117">
        <ele>117.42</ele>
        <time>2013-05-01T14:16:55Z</time>
      </trkpt>
      <trkpt lat="50.13226" lon="4.81603">
        <ele>117.42</ele>
        <time>2013-05-01T14:17:58Z</time>
      </trkpt>
      <trkpt lat="50.13266" lon="4.81858">
        <ele>116.46</ele>
        <time>2013-05-01T14:18:36Z</time>
      </trkpt>
      <trkpt lat="50.13302" lon="4.81996">
        <ele>116.46</ele>
        <time>2013-05-01T14:18:57Z</time>
      </trkpt>
      <trkpt lat="50.13339" lon="4.82099">
        <ele>116.46</ele>
        <time>2013-05-01T14:19:14Z</time>
      </trkpt>
      <trkpt lat="50.13399" lon="4.82414">
        <ele>115.98</ele>
        <time>2013-05-01T14:21:29Z</time>
      </trkpt>
      <trkpt lat="50.1342" lon="4.82515">
        <ele>115.5</ele>
        <time>2013-05-01T14:21:46Z</time>
      </trkpt>
      <trkpt lat="50.13417" lon="4.82533">
        <ele>115.98</ele>
        <time>2013-05-01T14:21:49Z</time>
      </trkpt>
      <trkpt lat="50.13425" lon="4.82567">
        <ele>117.42</ele>
        <time>2013-05-01T14:21:58Z</time>
      </trkpt>
      <trkpt lat="50.13435" lon="4.82579">
        <ele>117.42</ele>
        <time>2013-05-01T14:22:03Z</time>
      </trkpt>
      <trkpt lat="50.13523" lon="4.82793">
        <ele>119.82</ele>
        <time>2013-05-01T14:22:51Z</time>
      </trkpt>
      <trkpt lat="50.13642" lon="4.82657">
        <ele>118.38</ele>
        <time>2013-05-01T14:23:33Z</time>
      </trkpt>
      <trkpt lat="50.13709" lon="4.82542">
        <ele>116.94</ele>
        <time>2013-05-01T14:23:51Z</time>
      </trkpt>
      <trkpt lat="50.13636" lon="4.82472">
        <ele>120.78</ele>
        <time>2013-05-01T14:31:57Z</time>
      </trkpt>
    </trkseg>
  </trk>
</gpx>